CTV8519 OEJN-WIII
Flight info
| Callsign | CTV8519 |
|---|---|
| Flight time | N/A |
| Altitude | 37000 |
| Route | EGPOB2E EGPOB V31 BSH DCT ASTIN DCT GOBRO DCT ASPUX UL425 APUNA/N0477F390 UL425 TVM N640 KAT M766 SELSU/N0471F410 M766 PAGAI G461 BIDAK BIDAK1A |
| Aircraft | A339/H-SADE1E2E3GHIJ3J5M1P2RWXY/LB2D1 |
Departure
| Time | N/A |
|---|---|
| Airport | King Abdulaziz International Airport (OEJN) |
Arrival
| Time | 2026-05-04 02:50 |
|---|---|
| Airport | Soekarno-Hatta International Airport (WIII) |
| Time | Latitude | Longitude | Altitude | Speed | Heading |
|---|---|---|---|---|---|
| 2026-05-03 20:15 | 15.36772 | 63.94074 | 36858 ft | 483 kts | 121° |
| 2026-05-03 20:15 | 15.33152 | 63.99939 | 36857 ft | 483 kts | 121° |
| 2026-05-03 20:16 | 15.29541 | 64.05780 | 36860 ft | 483 kts | 121° |
| 2026-05-03 20:16 | 15.25915 | 64.11643 | 36855 ft | 483 kts | 121° |
| 2026-05-03 20:17 | 15.22283 | 64.17512 | 36857 ft | 483 kts | 121° |
| 2026-05-03 20:17 | 15.18660 | 64.23363 | 36859 ft | 483 kts | 121° |
| 2026-05-03 20:18 | 15.15030 | 64.29219 | 36858 ft | 482 kts | 121° |
| 2026-05-03 20:18 | 15.11407 | 64.35061 | 36857 ft | 482 kts | 121° |
| 2026-05-03 20:19 | 15.07781 | 64.40902 | 36857 ft | 482 kts | 121° |
| 2026-05-03 20:19 | 15.04181 | 64.46695 | 36856 ft | 482 kts | 121° |
| 2026-05-03 20:20 | 15.00551 | 64.52531 | 36855 ft | 482 kts | 121° |
| 2026-05-03 20:20 | 14.96926 | 64.58358 | 36858 ft | 481 kts | 121° |
| 2026-05-03 20:21 | 14.93297 | 64.64188 | 36858 ft | 481 kts | 121° |
| 2026-05-03 20:21 | 14.89670 | 64.70010 | 36857 ft | 481 kts | 121° |
| 2026-05-03 20:22 | 14.86068 | 64.75786 | 36859 ft | 481 kts | 121° |
| 2026-05-03 20:22 | 14.82436 | 64.81604 | 36855 ft | 481 kts | 121° |
| 2026-05-03 20:23 | 14.78810 | 64.87409 | 36863 ft | 481 kts | 121° |
| 2026-05-03 20:23 | 14.75181 | 64.93219 | 36862 ft | 481 kts | 121° |
| 2026-05-03 20:24 | 14.71553 | 64.99023 | 36860 ft | 480 kts | 121° |
| 2026-05-03 20:24 | 14.67946 | 65.04784 | 36860 ft | 480 kts | 121° |
| 2026-05-03 20:25 | 14.64318 | 65.10578 | 36863 ft | 480 kts | 121° |
| 2026-05-03 20:25 | 14.60688 | 65.16373 | 36859 ft | 480 kts | 122° |
| 2026-05-03 20:26 | 14.57059 | 65.22173 | 36860 ft | 480 kts | 121° |
| 2026-05-03 20:26 | 14.53459 | 65.27985 | 36859 ft | 480 kts | 121° |
| 2026-05-03 20:27 | 14.49860 | 65.33796 | 36858 ft | 480 kts | 121° |
| 2026-05-03 20:27 | 14.46257 | 65.39603 | 36858 ft | 480 kts | 121° |
| 2026-05-03 20:28 | 14.42671 | 65.45376 | 36858 ft | 480 kts | 121° |
| 2026-05-03 20:28 | 14.39064 | 65.51180 | 36859 ft | 480 kts | 121° |
| 2026-05-03 20:29 | 14.35458 | 65.56978 | 36860 ft | 480 kts | 121° |
| 2026-05-03 20:29 | 14.31849 | 65.62775 | 36857 ft | 480 kts | 121° |
| 2026-05-03 20:30 | 14.28230 | 65.68584 | 36855 ft | 480 kts | 121° |
| 2026-05-03 20:30 | 14.24616 | 65.74383 | 36859 ft | 480 kts | 122° |
| 2026-05-03 20:31 | 14.21025 | 65.80140 | 36856 ft | 481 kts | 122° |
| 2026-05-03 20:31 | 14.17407 | 65.85935 | 36858 ft | 481 kts | 122° |
| 2026-05-03 20:32 | 14.13778 | 65.91746 | 36860 ft | 481 kts | 122° |
| 2026-05-03 20:32 | 14.10154 | 65.97540 | 36858 ft | 481 kts | 122° |
| 2026-05-03 20:33 | 14.06550 | 66.03302 | 36860 ft | 481 kts | 122° |
| 2026-05-03 20:33 | 14.02919 | 66.09103 | 36859 ft | 481 kts | 122° |
| 2026-05-03 20:34 | 13.99292 | 66.14893 | 36858 ft | 481 kts | 122° |
| 2026-05-03 20:34 | 13.95664 | 66.20681 | 36858 ft | 481 kts | 122° |
| 2026-05-03 20:35 | 13.92029 | 66.26477 | 36863 ft | 481 kts | 122° |
| 2026-05-03 20:35 | 13.88384 | 66.32279 | 36858 ft | 482 kts | 122° |
| 2026-05-03 20:36 | 13.84749 | 66.38070 | 36862 ft | 482 kts | 122° |
| 2026-05-03 20:36 | 13.81108 | 66.43863 | 36864 ft | 482 kts | 122° |
| 2026-05-03 20:37 | 13.77489 | 66.49615 | 36858 ft | 482 kts | 122° |
| 2026-05-03 20:37 | 13.73841 | 66.55407 | 36865 ft | 482 kts | 122° |
| 2026-05-03 20:38 | 13.70194 | 66.61199 | 36860 ft | 482 kts | 122° |
| 2026-05-03 20:38 | 13.66541 | 66.66994 | 36863 ft | 483 kts | 122° |
| 2026-05-03 20:39 | 13.62909 | 66.72752 | 36860 ft | 483 kts | 122° |
| 2026-05-03 20:39 | 13.59253 | 66.78545 | 36860 ft | 483 kts | 122° |
| 2026-05-03 20:40 | 13.55596 | 66.84333 | 36860 ft | 483 kts | 122° |
| 2026-05-03 20:40 | 13.51938 | 66.90122 | 36861 ft | 483 kts | 122° |
| 2026-05-03 20:41 | 13.48274 | 66.95916 | 36862 ft | 483 kts | 122° |
| 2026-05-03 20:41 | 13.44612 | 67.01701 | 36859 ft | 483 kts | 122° |
| 2026-05-03 20:42 | 13.40952 | 67.07482 | 36859 ft | 483 kts | 122° |
| 2026-05-03 20:42 | 13.37284 | 67.13269 | 36861 ft | 483 kts | 122° |
| 2026-05-03 20:43 | 13.33620 | 67.19047 | 36861 ft | 483 kts | 122° |
| 2026-05-03 20:43 | 13.29953 | 67.24826 | 36863 ft | 483 kts | 122° |
| 2026-05-03 20:44 | 13.26315 | 67.30554 | 36862 ft | 482 kts | 122° |
| 2026-05-03 20:44 | 13.22644 | 67.36332 | 36857 ft | 482 kts | 122° |
| 2026-05-03 20:45 | 13.18976 | 67.42103 | 36856 ft | 483 kts | 122° |
| 2026-05-03 20:45 | 13.15305 | 67.47872 | 36858 ft | 483 kts | 122° |
| 2026-05-03 20:46 | 13.11629 | 67.53647 | 36857 ft | 483 kts | 122° |
| 2026-05-03 20:46 | 13.07952 | 67.59419 | 36857 ft | 483 kts | 122° |
| 2026-05-03 20:47 | 13.04276 | 67.65187 | 36862 ft | 483 kts | 123° |
| 2026-05-03 20:47 | 13.00621 | 67.70917 | 36858 ft | 483 kts | 123° |
| 2026-05-03 20:48 | 12.96941 | 67.76683 | 36859 ft | 483 kts | 123° |
| 2026-05-03 20:48 | 12.93258 | 67.82449 | 36857 ft | 483 kts | 123° |
| 2026-05-03 20:49 | 12.89575 | 67.88213 | 36860 ft | 483 kts | 123° |
| 2026-05-03 20:49 | 12.85891 | 67.93974 | 36857 ft | 483 kts | 123° |
| 2026-05-03 20:50 | 12.82831 | 67.98758 | 36857 ft | 483 kts | 123° |
| 2026-05-03 20:50 | 12.79151 | 68.04520 | 36855 ft | 483 kts | 123° |
| 2026-05-03 20:51 | 12.75491 | 68.10297 | 36855 ft | 483 kts | 122° |
| 2026-05-03 20:51 | 12.71835 | 68.16068 | 36858 ft | 483 kts | 123° |
| 2026-05-03 20:52 | 12.68173 | 68.21838 | 36856 ft | 483 kts | 123° |
| 2026-05-03 20:52 | 12.64526 | 68.27579 | 36857 ft | 483 kts | 123° |
| 2026-05-03 20:53 | 12.60853 | 68.33358 | 36855 ft | 484 kts | 123° |
| 2026-05-03 20:53 | 12.57184 | 68.39126 | 36856 ft | 484 kts | 123° |
| 2026-05-03 20:54 | 12.53506 | 68.44905 | 36854 ft | 484 kts | 123° |
| 2026-05-03 20:54 | 12.48010 | 68.53535 | 36853 ft | 484 kts | 123° |
| 2026-05-03 20:55 | 12.44327 | 68.59313 | 36853 ft | 485 kts | 123° |
| 2026-05-03 20:55 | 12.40641 | 68.65092 | 36859 ft | 485 kts | 123° |
| 2026-05-03 20:56 | 12.36955 | 68.70868 | 36855 ft | 485 kts | 123° |
| 2026-05-03 20:56 | 12.33267 | 68.76643 | 36854 ft | 485 kts | 123° |
| 2026-05-03 20:57 | 12.29572 | 68.82427 | 36854 ft | 485 kts | 123° |
| 2026-05-03 20:57 | 12.25880 | 68.88201 | 36856 ft | 485 kts | 123° |
| 2026-05-03 20:58 | 12.22207 | 68.93942 | 36852 ft | 485 kts | 123° |
| 2026-05-03 20:58 | 12.18513 | 68.99713 | 36853 ft | 485 kts | 123° |
| 2026-05-03 20:59 | 12.14816 | 69.05504 | 36853 ft | 485 kts | 123° |
| 2026-05-03 20:59 | 12.11131 | 69.11288 | 36853 ft | 486 kts | 123° |
| 2026-05-03 21:00 | 12.08060 | 69.16103 | 36856 ft | 486 kts | 123° |
| 2026-05-03 21:00 | 12.03769 | 69.22822 | 36853 ft | 486 kts | 123° |
| 2026-05-03 21:01 | 12.00074 | 69.28605 | 36854 ft | 486 kts | 123° |
| 2026-05-03 21:01 | 11.96374 | 69.34393 | 36852 ft | 486 kts | 123° |
| 2026-05-03 21:02 | 11.92675 | 69.40176 | 36854 ft | 486 kts | 123° |
| 2026-05-03 21:02 | 11.88999 | 69.45918 | 36853 ft | 486 kts | 123° |
| 2026-05-03 21:03 | 11.85302 | 69.51691 | 36851 ft | 485 kts | 123° |
| 2026-05-03 21:03 | 11.81607 | 69.57458 | 36850 ft | 485 kts | 123° |
| 2026-05-03 21:04 | 11.77910 | 69.63224 | 36852 ft | 485 kts | 123° |
| 2026-05-03 21:04 | 11.74215 | 69.68984 | 36851 ft | 485 kts | 124° |
| 2026-05-03 21:05 | 11.70513 | 69.74750 | 36850 ft | 484 kts | 123° |
| 2026-05-03 21:05 | 11.66821 | 69.80498 | 36849 ft | 484 kts | 124° |
| 2026-05-03 21:06 | 11.63151 | 69.86208 | 36850 ft | 484 kts | 124° |
| 2026-05-03 21:06 | 11.59451 | 69.91946 | 36844 ft | 484 kts | 124° |
| 2026-05-03 21:07 | 11.55733 | 69.97673 | 36846 ft | 484 kts | 124° |
| 2026-05-03 21:07 | 11.52013 | 70.03406 | 36842 ft | 484 kts | 124° |
| 2026-05-03 21:08 | 11.48301 | 70.09126 | 36841 ft | 484 kts | 124° |
| 2026-05-03 21:08 | 11.44608 | 70.14816 | 36840 ft | 484 kts | 124° |
| 2026-05-03 21:09 | 11.40890 | 70.20538 | 36841 ft | 484 kts | 124° |
| 2026-05-03 21:09 | 11.37169 | 70.26259 | 36841 ft | 484 kts | 124° |
| 2026-05-03 21:10 | 11.33450 | 70.31977 | 36838 ft | 484 kts | 124° |
| 2026-05-03 21:10 | 11.29733 | 70.37690 | 36840 ft | 484 kts | 124° |
| 2026-05-03 21:11 | 11.26005 | 70.43415 | 36839 ft | 483 kts | 124° |
| 2026-05-03 21:11 | 11.22305 | 70.49095 | 36838 ft | 484 kts | 124° |
| 2026-05-03 21:12 | 11.18585 | 70.54803 | 36842 ft | 483 kts | 124° |
| 2026-05-03 21:12 | 11.14860 | 70.60514 | 36838 ft | 484 kts | 124° |
| 2026-05-03 21:13 | 11.11134 | 70.66224 | 36839 ft | 484 kts | 124° |
| 2026-05-03 21:13 | 11.07408 | 70.71929 | 36839 ft | 484 kts | 124° |
| 2026-05-03 21:14 | 11.03681 | 70.77633 | 36841 ft | 484 kts | 124° |
| 2026-05-03 21:14 | 10.99949 | 70.83343 | 36832 ft | 484 kts | 124° |
| 2026-05-03 21:15 | 10.96219 | 70.89049 | 36837 ft | 484 kts | 124° |
| 2026-05-03 21:15 | 10.92509 | 70.94717 | 36835 ft | 484 kts | 124° |
| 2026-05-03 21:16 | 10.88776 | 71.00419 | 36838 ft | 484 kts | 124° |
| 2026-05-03 21:16 | 10.85045 | 71.06117 | 36842 ft | 484 kts | 124° |
| 2026-05-03 21:17 | 10.81941 | 71.10855 | 36842 ft | 484 kts | 124° |
| 2026-05-03 21:17 | 10.77567 | 71.17522 | 36843 ft | 484 kts | 124° |
| 2026-05-03 21:18 | 10.73856 | 71.23180 | 36841 ft | 484 kts | 124° |
| 2026-05-03 21:18 | 10.70123 | 71.28871 | 36843 ft | 484 kts | 124° |
| 2026-05-03 21:19 | 10.66384 | 71.34563 | 36844 ft | 484 kts | 124° |
| 2026-05-03 21:19 | 10.62647 | 71.40247 | 36841 ft | 483 kts | 124° |
| 2026-05-03 21:20 | 10.58909 | 71.45936 | 36838 ft | 483 kts | 124° |
| 2026-05-03 21:20 | 10.55175 | 71.51612 | 36846 ft | 483 kts | 124° |
| 2026-05-03 21:21 | 10.51444 | 71.57282 | 36840 ft | 482 kts | 124° |
| 2026-05-03 21:21 | 10.47737 | 71.62912 | 36838 ft | 482 kts | 124° |
| 2026-05-03 21:22 | 10.44010 | 71.68569 | 36840 ft | 482 kts | 124° |
| 2026-05-03 21:22 | 10.40283 | 71.74223 | 36836 ft | 482 kts | 124° |
| 2026-05-03 21:23 | 10.36556 | 71.79876 | 36836 ft | 482 kts | 124° |
| 2026-05-03 21:23 | 10.32828 | 71.85528 | 36839 ft | 481 kts | 124° |
| 2026-05-03 21:24 | 10.29099 | 71.91176 | 36837 ft | 481 kts | 124° |
| 2026-05-03 21:24 | 10.25358 | 71.96841 | 36840 ft | 481 kts | 125° |
| 2026-05-03 21:25 | 10.21649 | 72.02454 | 36835 ft | 481 kts | 124° |
| 2026-05-03 21:25 | 10.17918 | 72.08097 | 36837 ft | 481 kts | 124° |
| 2026-05-03 21:26 | 10.14188 | 72.13736 | 36839 ft | 481 kts | 124° |
| 2026-05-03 21:26 | 10.10451 | 72.19384 | 36836 ft | 481 kts | 124° |
| 2026-05-03 21:27 | 10.06720 | 72.25019 | 36838 ft | 481 kts | 124° |
| 2026-05-03 21:27 | 10.02983 | 72.30661 | 36835 ft | 481 kts | 125° |
| 2026-05-03 21:28 | 9.99250 | 72.36302 | 36832 ft | 481 kts | 124° |
| 2026-05-03 21:28 | 9.96127 | 72.42308 | 36832 ft | 482 kts | 113° |
| 2026-05-03 21:29 | 9.93961 | 72.48706 | 36831 ft | 483 kts | 109° |
| 2026-05-03 21:29 | 9.91851 | 72.55181 | 36833 ft | 483 kts | 109° |
| 2026-05-03 21:30 | 9.89728 | 72.61652 | 36835 ft | 484 kts | 109° |
| 2026-05-03 21:30 | 9.87606 | 72.68124 | 36837 ft | 484 kts | 109° |
| 2026-05-03 21:31 | 9.85477 | 72.74611 | 36833 ft | 484 kts | 109° |
| 2026-05-03 21:31 | 9.83351 | 72.81088 | 36837 ft | 484 kts | 109° |
| 2026-05-03 21:32 | 9.81222 | 72.87569 | 36840 ft | 484 kts | 109° |
| 2026-05-03 21:32 | 9.79093 | 72.94047 | 36840 ft | 484 kts | 109° |
| 2026-05-03 21:33 | 9.76961 | 73.00524 | 36839 ft | 484 kts | 109° |
| 2026-05-03 21:33 | 9.74829 | 73.07001 | 36839 ft | 484 kts | 109° |
| 2026-05-03 21:34 | 9.72707 | 73.13441 | 36837 ft | 484 kts | 109° |
| 2026-05-03 21:34 | 9.70570 | 73.19924 | 36834 ft | 484 kts | 109° |
| 2026-05-03 21:35 | 9.68432 | 73.26404 | 36837 ft | 484 kts | 109° |
| 2026-05-03 21:35 | 9.66296 | 73.32874 | 36836 ft | 485 kts | 109° |
| 2026-05-03 21:36 | 9.64155 | 73.39359 | 36833 ft | 485 kts | 109° |
| 2026-05-03 21:36 | 9.62374 | 73.44747 | 36837 ft | 485 kts | 109° |
| 2026-05-03 21:37 | 9.59884 | 73.52272 | 36835 ft | 485 kts | 109° |
| 2026-05-03 21:37 | 9.58099 | 73.57664 | 36840 ft | 484 kts | 109° |
| 2026-05-03 21:38 | 9.55955 | 73.64138 | 36838 ft | 484 kts | 109° |
| 2026-05-03 21:38 | 9.53810 | 73.70602 | 36841 ft | 484 kts | 109° |
| 2026-05-03 21:39 | 9.51665 | 73.77068 | 36840 ft | 484 kts | 109° |
| 2026-05-03 21:39 | 9.49522 | 73.83527 | 36834 ft | 483 kts | 109° |
| 2026-05-03 21:40 | 9.47377 | 73.89985 | 36832 ft | 483 kts | 109° |
| 2026-05-03 21:40 | 9.45231 | 73.96440 | 36832 ft | 483 kts | 109° |
| 2026-05-03 21:41 | 9.43099 | 74.02851 | 36836 ft | 483 kts | 109° |
| 2026-05-03 21:41 | 9.40953 | 74.09298 | 36832 ft | 483 kts | 109° |
| 2026-05-03 21:42 | 9.38839 | 74.15748 | 36828 ft | 483 kts | 108° |
| 2026-05-03 21:42 | 9.36743 | 74.22211 | 36826 ft | 483 kts | 108° |
| 2026-05-03 21:43 | 9.34641 | 74.28671 | 36830 ft | 483 kts | 108° |
| 2026-05-03 21:43 | 9.32531 | 74.35142 | 36828 ft | 484 kts | 108° |
| 2026-05-03 21:44 | 9.30420 | 74.41607 | 36823 ft | 484 kts | 108° |
| 2026-05-03 21:44 | 9.28303 | 74.48086 | 36826 ft | 484 kts | 108° |
| 2026-05-03 21:45 | 9.26185 | 74.54565 | 36821 ft | 485 kts | 108° |
| 2026-05-03 21:45 | 9.24079 | 74.61006 | 36828 ft | 485 kts | 108° |
| 2026-05-03 21:46 | 9.21958 | 74.67485 | 36828 ft | 485 kts | 108° |
| 2026-05-03 21:46 | 9.19832 | 74.73974 | 36829 ft | 485 kts | 108° |
| 2026-05-03 21:47 | 9.17706 | 74.80462 | 36828 ft | 485 kts | 108° |
| 2026-05-03 21:47 | 9.15580 | 74.86944 | 36831 ft | 485 kts | 108° |
| 2026-05-03 21:48 | 9.13452 | 74.93429 | 36830 ft | 485 kts | 108° |
| 2026-05-03 21:48 | 9.11327 | 74.99901 | 36831 ft | 484 kts | 108° |
| 2026-05-03 21:49 | 9.09201 | 75.06370 | 36827 ft | 484 kts | 109° |
| 2026-05-03 21:49 | 9.07088 | 75.12796 | 36827 ft | 484 kts | 109° |
| 2026-05-03 21:50 | 9.04964 | 75.19251 | 36830 ft | 483 kts | 109° |
| 2026-05-03 21:50 | 9.02839 | 75.25705 | 36826 ft | 483 kts | 109° |
| 2026-05-03 21:51 | 9.00715 | 75.32153 | 36825 ft | 483 kts | 109° |
| 2026-05-03 21:51 | 8.98587 | 75.38606 | 36824 ft | 482 kts | 109° |
| 2026-05-03 21:52 | 8.96475 | 75.45005 | 36824 ft | 482 kts | 109° |
| 2026-05-03 21:52 | 8.94351 | 75.51439 | 36827 ft | 482 kts | 109° |
| 2026-05-03 21:53 | 8.92227 | 75.57868 | 36827 ft | 482 kts | 109° |
| 2026-05-03 21:53 | 8.90104 | 75.64292 | 36831 ft | 481 kts | 109° |
| 2026-05-03 21:54 | 8.87983 | 75.70706 | 36828 ft | 481 kts | 109° |
| 2026-05-03 21:54 | 8.85861 | 75.77118 | 36825 ft | 480 kts | 109° |
| 2026-05-03 21:55 | 8.83755 | 75.83475 | 36825 ft | 480 kts | 109° |
| 2026-05-03 21:55 | 8.81636 | 75.89874 | 36825 ft | 479 kts | 109° |
| 2026-05-03 21:56 | 8.79518 | 75.96260 | 36823 ft | 479 kts | 109° |
| 2026-05-03 21:56 | 8.77397 | 76.02650 | 36819 ft | 479 kts | 109° |
| 2026-05-03 21:57 | 8.75277 | 76.09036 | 36819 ft | 479 kts | 109° |
| 2026-05-03 21:57 | 8.73157 | 76.15419 | 36822 ft | 479 kts | 109° |
| 2026-05-03 21:58 | 8.71050 | 76.21757 | 36823 ft | 478 kts | 109° |
| 2026-05-03 21:58 | 8.68930 | 76.28133 | 36825 ft | 478 kts | 109° |
| 2026-05-03 21:59 | 8.66809 | 76.34507 | 36823 ft | 478 kts | 109° |
| 2026-05-03 21:59 | 8.64685 | 76.40881 | 36826 ft | 478 kts | 109° |
| 2026-05-03 22:00 | 8.62563 | 76.47251 | 36826 ft | 478 kts | 109° |
| 2026-05-03 22:00 | 8.60439 | 76.53622 | 36826 ft | 478 kts | 110° |
| 2026-05-03 22:01 | 8.58316 | 76.59986 | 36831 ft | 478 kts | 110° |
| 2026-05-03 22:01 | 8.56208 | 76.66303 | 36829 ft | 478 kts | 110° |
| 2026-05-03 22:02 | 8.54080 | 76.72672 | 36829 ft | 478 kts | 110° |
| 2026-05-03 22:02 | 8.51951 | 76.79039 | 36828 ft | 478 kts | 110° |
| 2026-05-03 22:03 | 8.49825 | 76.85399 | 36828 ft | 478 kts | 110° |
| 2026-05-03 22:03 | 8.47813 | 76.91811 | 36825 ft | 479 kts | 104° |
| 2026-05-03 22:04 | 8.46789 | 76.98419 | 36821 ft | 480 kts | 97° |
| 2026-05-03 22:04 | 8.46065 | 77.05121 | 36827 ft | 480 kts | 97° |
| 2026-05-03 22:05 | 8.45316 | 77.11827 | 36831 ft | 480 kts | 97° |
| 2026-05-03 22:05 | 8.44565 | 77.18528 | 36837 ft | 480 kts | 97° |
| 2026-05-03 22:06 | 8.43814 | 77.25238 | 36840 ft | 480 kts | 97° |
| 2026-05-03 22:06 | 8.43063 | 77.31948 | 36834 ft | 481 kts | 98° |
| 2026-05-03 22:07 | 8.42310 | 77.38652 | 36827 ft | 481 kts | 98° |
| 2026-05-03 22:07 | 8.41560 | 77.45319 | 36825 ft | 481 kts | 98° |
| 2026-05-03 22:08 | 8.40804 | 77.52035 | 36822 ft | 481 kts | 98° |
| 2026-05-03 22:08 | 8.40047 | 77.58746 | 36814 ft | 481 kts | 98° |
| 2026-05-03 22:09 | 8.39289 | 77.65458 | 36805 ft | 481 kts | 98° |
| 2026-05-03 22:10 | 8.38149 | 77.75527 | 36793 ft | 481 kts | 98° |
| 2026-05-03 22:10 | 8.37387 | 77.82244 | 36795 ft | 481 kts | 98° |
| 2026-05-03 22:11 | 8.36624 | 77.88965 | 36790 ft | 481 kts | 98° |
| 2026-05-03 22:11 | 8.35860 | 77.95683 | 36787 ft | 481 kts | 98° |
| 2026-05-03 22:12 | 8.35102 | 78.02347 | 36790 ft | 481 kts | 98° |
| 2026-05-03 22:12 | 8.34336 | 78.09060 | 36791 ft | 481 kts | 98° |
| 2026-05-03 22:13 | 8.33568 | 78.15773 | 36792 ft | 481 kts | 98° |
| 2026-05-03 22:13 | 8.32801 | 78.22478 | 36793 ft | 480 kts | 98° |
| 2026-05-03 22:14 | 8.32033 | 78.29178 | 36788 ft | 480 kts | 98° |
| 2026-05-03 22:14 | 8.31268 | 78.35840 | 36789 ft | 480 kts | 99° |
| 2026-05-03 22:15 | 8.30497 | 78.42528 | 36793 ft | 479 kts | 98° |
| 2026-05-03 22:15 | 8.29730 | 78.49216 | 36789 ft | 479 kts | 99° |
| 2026-05-03 22:16 | 8.28791 | 78.55873 | 36787 ft | 476 kts | 106° |
| 2026-05-03 22:16 | 8.26233 | 78.61968 | 36786 ft | 471 kts | 124° |
| 2026-05-03 22:17 | 8.22139 | 78.67029 | 36794 ft | 469 kts | 134° |
| 2026-05-03 22:17 | 8.17762 | 78.71923 | 36795 ft | 468 kts | 133° |
| 2026-05-03 22:18 | 8.13400 | 78.76833 | 36796 ft | 469 kts | 133° |
| 2026-05-03 22:18 | 8.09049 | 78.81727 | 36801 ft | 468 kts | 133° |
| 2026-05-03 22:19 | 8.04696 | 78.86619 | 36804 ft | 468 kts | 133° |
| 2026-05-03 22:19 | 8.00342 | 78.91510 | 36802 ft | 468 kts | 133° |
| 2026-05-03 22:20 | 7.95986 | 78.96403 | 36806 ft | 468 kts | 133° |
| 2026-05-03 22:20 | 7.91661 | 79.01257 | 36807 ft | 468 kts | 133° |
| 2026-05-03 22:21 | 7.87309 | 79.06142 | 36807 ft | 467 kts | 133° |
| 2026-05-03 22:21 | 7.82957 | 79.11024 | 36811 ft | 468 kts | 133° |
| 2026-05-03 22:22 | 7.78599 | 79.15911 | 36812 ft | 468 kts | 133° |
| 2026-05-03 22:22 | 7.74242 | 79.20795 | 36816 ft | 468 kts | 133° |
| 2026-05-03 22:23 | 7.69916 | 79.25648 | 36817 ft | 468 kts | 133° |
| 2026-05-03 22:23 | 7.65600 | 79.30568 | 36818 ft | 469 kts | 133° |
| 2026-05-03 22:24 | 7.61281 | 79.35501 | 36819 ft | 469 kts | 133° |
| 2026-05-03 22:24 | 7.56956 | 79.40427 | 36822 ft | 469 kts | 133° |
| 2026-05-03 22:25 | 7.52628 | 79.45355 | 36825 ft | 469 kts | 133° |
| 2026-05-03 22:25 | 7.48292 | 79.50287 | 36825 ft | 470 kts | 133° |
| 2026-05-03 22:26 | 7.43985 | 79.55187 | 36828 ft | 470 kts | 133° |
| 2026-05-03 22:26 | 7.39646 | 79.60120 | 36832 ft | 470 kts | 133° |
| 2026-05-03 22:27 | 7.36034 | 79.64226 | 36835 ft | 470 kts | 133° |
| 2026-05-03 22:27 | 7.31689 | 79.69164 | 36835 ft | 470 kts | 132° |
| 2026-05-03 22:28 | 7.26646 | 79.74893 | 36834 ft | 470 kts | 132° |
| 2026-05-03 22:28 | 7.23007 | 79.79026 | 36836 ft | 470 kts | 132° |
| 2026-05-03 22:29 | 7.18704 | 79.83931 | 36833 ft | 470 kts | 131° |
| 2026-05-03 22:29 | 7.14952 | 79.89335 | 36833 ft | 471 kts | 121° |
| 2026-05-03 22:30 | 7.12004 | 79.95245 | 36828 ft | 472 kts | 117° |
| 2026-05-03 22:30 | 7.09099 | 80.01187 | 36833 ft | 472 kts | 117° |
| 2026-05-03 22:31 | 7.06204 | 80.07082 | 36836 ft | 472 kts | 117° |
| 2026-05-03 22:31 | 7.03293 | 80.13010 | 36844 ft | 472 kts | 117° |
| 2026-05-03 22:32 | 7.00384 | 80.18935 | 36856 ft | 472 kts | 117° |
| 2026-05-03 22:32 | 6.97477 | 80.24856 | 36865 ft | 472 kts | 117° |
| 2026-05-03 22:33 | 6.94566 | 80.30782 | 36876 ft | 472 kts | 117° |
| 2026-05-03 22:33 | 6.91657 | 80.36701 | 36878 ft | 472 kts | 117° |
| 2026-05-03 22:34 | 6.88745 | 80.42624 | 36884 ft | 472 kts | 117° |
| 2026-05-03 22:34 | 6.85832 | 80.48545 | 36877 ft | 472 kts | 117° |
| 2026-05-03 22:35 | 6.82935 | 80.54433 | 36898 ft | 472 kts | 117° |
| 2026-05-03 22:35 | 6.80019 | 80.60359 | 36896 ft | 472 kts | 117° |
| 2026-05-03 22:36 | 6.77104 | 80.66279 | 36895 ft | 473 kts | 117° |
| 2026-05-03 22:36 | 6.74198 | 80.72180 | 36902 ft | 473 kts | 117° |
| 2026-05-03 22:37 | 6.71245 | 80.78100 | 36899 ft | 473 kts | 118° |
| 2026-05-03 22:37 | 6.68273 | 80.84011 | 36892 ft | 473 kts | 118° |
| 2026-05-03 22:38 | 6.65311 | 80.89914 | 36878 ft | 473 kts | 118° |
| 2026-05-03 22:38 | 6.62350 | 80.95819 | 36872 ft | 472 kts | 118° |
| 2026-05-03 22:39 | 6.59387 | 81.01725 | 36859 ft | 472 kts | 118° |
| 2026-05-03 22:39 | 6.56427 | 81.07623 | 36852 ft | 472 kts | 118° |
| 2026-05-03 22:40 | 6.53487 | 81.13480 | 36854 ft | 472 kts | 118° |
| 2026-05-03 22:40 | 6.50530 | 81.19368 | 36853 ft | 471 kts | 118° |
| 2026-05-03 22:41 | 6.47573 | 81.25255 | 36845 ft | 471 kts | 118° |
| 2026-05-03 22:41 | 6.44618 | 81.31136 | 36841 ft | 471 kts | 118° |
| 2026-05-03 22:42 | 6.41658 | 81.37024 | 36824 ft | 471 kts | 118° |
| 2026-05-03 22:42 | 6.38699 | 81.42908 | 36835 ft | 471 kts | 118° |
| 2026-05-03 22:43 | 6.35742 | 81.48788 | 36835 ft | 471 kts | 118° |
| 2026-05-03 22:43 | 6.32785 | 81.54670 | 36834 ft | 471 kts | 118° |
| 2026-05-03 22:44 | 6.29964 | 81.60619 | 36833 ft | 471 kts | 116° |
| 2026-05-03 22:44 | 6.27197 | 81.66538 | 36831 ft | 470 kts | 117° |
| 2026-05-03 22:45 | 6.24400 | 81.72468 | 36831 ft | 470 kts | 117° |
| 2026-05-03 22:45 | 6.21592 | 81.78397 | 36831 ft | 469 kts | 117° |
| 2026-05-03 22:46 | 6.18791 | 81.84316 | 36826 ft | 469 kts | 116° |
| 2026-05-03 22:46 | 6.15984 | 81.90244 | 36827 ft | 469 kts | 116° |
| 2026-05-03 22:47 | 6.13183 | 81.96157 | 36830 ft | 468 kts | 116° |
| 2026-05-03 22:47 | 6.10396 | 82.02070 | 36827 ft | 467 kts | 116° |
| 2026-05-03 22:48 | 6.07611 | 82.07999 | 36829 ft | 470 kts | 116° |
| 2026-05-03 22:48 | 6.04841 | 82.13888 | 36824 ft | 468 kts | 116° |
| 2026-05-03 22:49 | 6.02049 | 82.19818 | 36824 ft | 470 kts | 116° |
| 2026-05-03 22:49 | 5.99252 | 82.25757 | 36825 ft | 470 kts | 116° |
| 2026-05-03 22:50 | 5.96454 | 82.31695 | 36822 ft | 470 kts | 116° |
| 2026-05-03 22:50 | 5.93673 | 82.37596 | 36828 ft | 470 kts | 116° |
| 2026-05-03 22:51 | 5.90873 | 82.43548 | 36822 ft | 472 kts | 117° |
| 2026-05-03 22:51 | 5.88058 | 82.49514 | 36830 ft | 472 kts | 117° |
| 2026-05-03 22:52 | 5.85244 | 82.55475 | 36826 ft | 471 kts | 117° |
| 2026-05-03 22:52 | 5.82434 | 82.61429 | 36828 ft | 472 kts | 117° |
| 2026-05-03 22:53 | 5.79624 | 82.67382 | 36823 ft | 472 kts | 117° |
| 2026-05-03 22:53 | 5.76829 | 82.73300 | 36824 ft | 472 kts | 117° |
| 2026-05-03 22:54 | 5.74015 | 82.79255 | 36824 ft | 471 kts | 117° |
| 2026-05-03 22:54 | 5.71203 | 82.85206 | 36819 ft | 471 kts | 117° |
| 2026-05-03 22:55 | 5.68392 | 82.91155 | 36822 ft | 472 kts | 117° |
| 2026-05-03 22:55 | 5.65573 | 82.97123 | 36819 ft | 472 kts | 117° |
| 2026-05-03 22:56 | 5.62753 | 83.03080 | 36821 ft | 472 kts | 117° |
| 2026-05-03 22:56 | 5.59952 | 83.09001 | 36821 ft | 473 kts | 117° |
| 2026-05-03 22:57 | 5.57127 | 83.14974 | 36821 ft | 473 kts | 116° |
| 2026-05-03 22:57 | 5.54297 | 83.20951 | 36823 ft | 474 kts | 116° |
| 2026-05-03 22:58 | 5.51466 | 83.26928 | 36820 ft | 475 kts | 116° |
| 2026-05-03 22:58 | 5.48622 | 83.32937 | 36821 ft | 476 kts | 116° |
| 2026-05-03 22:59 | 5.45788 | 83.38922 | 36819 ft | 478 kts | 117° |
| 2026-05-03 22:59 | 5.42920 | 83.44973 | 37026 ft | 480 kts | 117° |
| 2026-05-03 22:59 | 5.41485 | 83.47996 | 37180 ft | 480 kts | 117° |
| 2026-05-03 23:00 | 5.40050 | 83.51023 | 37322 ft | 481 kts | 117° |
| 2026-05-03 23:00 | 5.38612 | 83.54055 | 37453 ft | 481 kts | 117° |
| 2026-05-03 23:00 | 5.37170 | 83.57093 | 37590 ft | 482 kts | 117° |
| 2026-05-03 23:00 | 5.35726 | 83.60133 | 37716 ft | 483 kts | 117° |
| 2026-05-03 23:01 | 5.34281 | 83.63177 | 37841 ft | 483 kts | 117° |
| 2026-05-03 23:01 | 5.32839 | 83.66218 | 37985 ft | 483 kts | 117° |
| 2026-05-03 23:01 | 5.31391 | 83.69268 | 38136 ft | 483 kts | 117° |
| 2026-05-03 23:01 | 5.29945 | 83.72311 | 38337 ft | 482 kts | 117° |
| 2026-05-03 23:02 | 5.28503 | 83.75351 | 38497 ft | 482 kts | 117° |
| 2026-05-03 23:02 | 5.27063 | 83.78387 | 38639 ft | 481 kts | 117° |
| 2026-05-03 23:02 | 5.25626 | 83.81415 | 38776 ft | 480 kts | 117° |
| 2026-05-03 23:03 | 5.22761 | 83.87449 | 38808 ft | 478 kts | 116° |
| 2026-05-03 23:03 | 5.19919 | 83.93430 | 38808 ft | 477 kts | 116° |
| 2026-05-03 23:04 | 5.17062 | 83.99441 | 38810 ft | 477 kts | 116° |
| 2026-05-03 23:04 | 5.14166 | 84.05415 | 38829 ft | 476 kts | 117° |
| 2026-05-03 23:05 | 5.11221 | 84.11370 | 38822 ft | 476 kts | 117° |
| 2026-05-03 23:05 | 5.08293 | 84.17314 | 38813 ft | 475 kts | 116° |
| 2026-05-03 23:06 | 5.05371 | 84.23260 | 38807 ft | 475 kts | 116° |
| 2026-05-03 23:06 | 5.02454 | 84.29194 | 38811 ft | 474 kts | 116° |
| 2026-05-03 23:07 | 4.99538 | 84.35123 | 38829 ft | 473 kts | 116° |
| 2026-05-03 23:07 | 4.96624 | 84.41047 | 38829 ft | 473 kts | 116° |
| 2026-05-03 23:08 | 4.93714 | 84.46958 | 38820 ft | 472 kts | 116° |
| 2026-05-03 23:08 | 4.90808 | 84.52863 | 38808 ft | 472 kts | 116° |
| 2026-05-03 23:09 | 4.87918 | 84.58732 | 38811 ft | 471 kts | 116° |
| 2026-05-03 23:09 | 4.85020 | 84.64614 | 38815 ft | 470 kts | 116° |
| 2026-05-03 23:10 | 4.82120 | 84.70501 | 38834 ft | 470 kts | 116° |
| 2026-05-03 23:10 | 4.79230 | 84.76367 | 38832 ft | 469 kts | 116° |
| 2026-05-03 23:11 | 4.76343 | 84.82224 | 38825 ft | 467 kts | 116° |
| 2026-05-03 23:11 | 4.73462 | 84.88069 | 38814 ft | 466 kts | 116° |
| 2026-05-03 23:12 | 4.70589 | 84.93893 | 38815 ft | 466 kts | 116° |
| 2026-05-03 23:12 | 4.67717 | 84.99719 | 38817 ft | 466 kts | 116° |
| 2026-05-03 23:13 | 4.64847 | 85.05537 | 38820 ft | 465 kts | 116° |
| 2026-05-03 23:13 | 4.62000 | 85.11305 | 38823 ft | 464 kts | 116° |
| 2026-05-03 23:14 | 4.59131 | 85.17118 | 38818 ft | 464 kts | 116° |
| 2026-05-03 23:14 | 4.56269 | 85.22916 | 38818 ft | 464 kts | 116° |
| 2026-05-03 23:15 | 4.53870 | 85.27775 | 38822 ft | 464 kts | 116° |
| 2026-05-03 23:15 | 4.51003 | 85.33580 | 38818 ft | 464 kts | 116° |
| 2026-05-03 23:16 | 4.48140 | 85.39373 | 38822 ft | 465 kts | 116° |
| 2026-05-03 23:16 | 4.45265 | 85.45192 | 38821 ft | 466 kts | 116° |
| 2026-05-03 23:17 | 4.42387 | 85.51013 | 38822 ft | 467 kts | 116° |
| 2026-05-03 23:17 | 4.39497 | 85.56859 | 38824 ft | 468 kts | 116° |
| 2026-05-03 23:18 | 4.36607 | 85.62703 | 38820 ft | 469 kts | 116° |
| 2026-05-03 23:18 | 4.33705 | 85.68568 | 38821 ft | 470 kts | 116° |
| 2026-05-03 23:19 | 4.30815 | 85.74408 | 38823 ft | 471 kts | 116° |
| 2026-05-03 23:19 | 4.27905 | 85.80289 | 38823 ft | 471 kts | 115° |
| 2026-05-03 23:20 | 4.24999 | 85.86162 | 38821 ft | 470 kts | 115° |
| 2026-05-03 23:20 | 4.22093 | 85.92030 | 38839 ft | 470 kts | 115° |
| 2026-05-03 23:21 | 4.19196 | 85.97887 | 38839 ft | 468 kts | 115° |
| 2026-05-03 23:21 | 4.16304 | 86.03723 | 38821 ft | 467 kts | 115° |
| 2026-05-03 23:22 | 4.11992 | 86.12425 | 38816 ft | 466 kts | 115° |
| 2026-05-03 23:22 | 4.09110 | 86.18239 | 38823 ft | 466 kts | 115° |
| 2026-05-03 23:23 | 4.06230 | 86.24049 | 38841 ft | 465 kts | 115° |
| 2026-05-03 23:23 | 4.03352 | 86.29854 | 38837 ft | 465 kts | 115° |
| 2026-05-03 23:24 | 4.00477 | 86.35653 | 38819 ft | 464 kts | 115° |
| 2026-05-03 23:24 | 3.97604 | 86.41446 | 38822 ft | 464 kts | 115° |
| 2026-05-03 23:25 | 3.94734 | 86.47231 | 38827 ft | 463 kts | 115° |
| 2026-05-03 23:25 | 3.91867 | 86.53009 | 38839 ft | 463 kts | 115° |
| 2026-05-03 23:26 | 3.89005 | 86.58776 | 38841 ft | 462 kts | 115° |
| 2026-05-03 23:26 | 3.86144 | 86.64539 | 38827 ft | 462 kts | 115° |
| 2026-05-03 23:27 | 3.83305 | 86.70257 | 38830 ft | 461 kts | 115° |
| 2026-05-03 23:27 | 3.80446 | 86.76013 | 38831 ft | 461 kts | 115° |
| 2026-05-03 23:28 | 3.77590 | 86.81764 | 38827 ft | 461 kts | 115° |
| 2026-05-03 23:28 | 3.74729 | 86.87523 | 38829 ft | 461 kts | 115° |
| 2026-05-03 23:29 | 3.71867 | 86.93282 | 38826 ft | 462 kts | 115° |
| 2026-05-03 23:29 | 3.69007 | 86.99037 | 38828 ft | 462 kts | 115° |
| 2026-05-03 23:30 | 3.66144 | 87.04796 | 38833 ft | 462 kts | 115° |
| 2026-05-03 23:30 | 3.63281 | 87.10555 | 38832 ft | 462 kts | 115° |
| 2026-05-03 23:31 | 3.60412 | 87.16323 | 38827 ft | 462 kts | 115° |
| 2026-05-03 23:31 | 3.57541 | 87.22095 | 38828 ft | 462 kts | 115° |
| 2026-05-03 23:32 | 3.54693 | 87.27819 | 38839 ft | 462 kts | 115° |
| 2026-05-03 23:32 | 3.51807 | 87.33621 | 38847 ft | 462 kts | 115° |
| 2026-05-03 23:33 | 3.48938 | 87.39385 | 38831 ft | 462 kts | 115° |
| 2026-05-03 23:33 | 3.46071 | 87.45144 | 38828 ft | 463 kts | 115° |
| 2026-05-03 23:34 | 3.43201 | 87.50909 | 38824 ft | 463 kts | 115° |
| 2026-05-03 23:34 | 3.40333 | 87.56670 | 38835 ft | 463 kts | 115° |
| 2026-05-03 23:35 | 3.37459 | 87.62439 | 38845 ft | 463 kts | 115° |
| 2026-05-03 23:35 | 3.34604 | 87.68173 | 38838 ft | 463 kts | 115° |
| 2026-05-03 23:36 | 3.31726 | 87.73951 | 38837 ft | 464 kts | 115° |
| 2026-05-03 23:36 | 3.28770 | 87.79693 | 38839 ft | 464 kts | 117° |
| 2026-05-03 23:37 | 3.25736 | 87.85393 | 38839 ft | 464 kts | 117° |
| 2026-05-03 23:37 | 3.22711 | 87.91113 | 38838 ft | 464 kts | 116° |
| 2026-05-03 23:38 | 3.19698 | 87.96834 | 38841 ft | 464 kts | 116° |
| 2026-05-03 23:38 | 3.16686 | 88.02556 | 38847 ft | 464 kts | 116° |
| 2026-05-03 23:39 | 3.13674 | 88.08276 | 38855 ft | 464 kts | 116° |
| 2026-05-03 23:39 | 3.10665 | 88.13988 | 38842 ft | 464 kts | 116° |
| 2026-05-03 23:40 | 3.07655 | 88.19700 | 38843 ft | 464 kts | 116° |
| 2026-05-03 23:40 | 3.04668 | 88.25369 | 38844 ft | 463 kts | 116° |
| 2026-05-03 23:41 | 3.01664 | 88.31070 | 38849 ft | 463 kts | 116° |
| 2026-05-03 23:41 | 2.98661 | 88.36768 | 38860 ft | 463 kts | 117° |
| 2026-05-03 23:42 | 2.95661 | 88.42457 | 38843 ft | 462 kts | 116° |
| 2026-05-03 23:42 | 2.92678 | 88.48128 | 38841 ft | 462 kts | 116° |
| 2026-05-03 23:43 | 2.89832 | 88.53895 | 38846 ft | 462 kts | 115° |
| 2026-05-03 23:43 | 2.87014 | 88.59677 | 38845 ft | 462 kts | 115° |
| 2026-05-03 23:44 | 2.84173 | 88.65453 | 38861 ft | 462 kts | 115° |
| 2026-05-03 23:44 | 2.81327 | 88.71219 | 38861 ft | 462 kts | 115° |
| 2026-05-03 23:45 | 2.78473 | 88.76999 | 38845 ft | 463 kts | 115° |
| 2026-05-03 23:45 | 2.75639 | 88.82741 | 38836 ft | 463 kts | 115° |
| 2026-05-03 23:46 | 2.72785 | 88.88521 | 38839 ft | 463 kts | 115° |
| 2026-05-03 23:46 | 2.69932 | 88.94299 | 38853 ft | 463 kts | 115° |
| 2026-05-03 23:47 | 2.67077 | 89.00079 | 38848 ft | 463 kts | 115° |
| 2026-05-03 23:47 | 2.64222 | 89.05859 | 38849 ft | 464 kts | 115° |
| 2026-05-03 23:48 | 2.61362 | 89.11648 | 38845 ft | 464 kts | 115° |
| 2026-05-03 23:48 | 2.58504 | 89.17432 | 38844 ft | 464 kts | 115° |
| 2026-05-03 23:49 | 2.55644 | 89.23222 | 38856 ft | 464 kts | 115° |
| 2026-05-03 23:49 | 2.52797 | 89.28982 | 38864 ft | 464 kts | 115° |
| 2026-05-03 23:50 | 2.50398 | 89.33834 | 38863 ft | 464 kts | 115° |
| 2026-05-03 23:50 | 2.47071 | 89.40565 | 38868 ft | 464 kts | 115° |
| 2026-05-03 23:51 | 2.44209 | 89.46354 | 38861 ft | 465 kts | 115° |
| 2026-05-03 23:51 | 2.41344 | 89.52147 | 38865 ft | 465 kts | 116° |
| 2026-05-03 23:52 | 2.38475 | 89.57948 | 38863 ft | 465 kts | 115° |
| 2026-05-03 23:52 | 2.35609 | 89.63742 | 38850 ft | 465 kts | 115° |
| 2026-05-03 23:53 | 2.32756 | 89.69509 | 38870 ft | 465 kts | 115° |
| 2026-05-03 23:53 | 2.29890 | 89.75302 | 38861 ft | 465 kts | 115° |
| 2026-05-03 23:54 | 2.27021 | 89.81097 | 38859 ft | 465 kts | 115° |
| 2026-05-03 23:54 | 2.24153 | 89.86882 | 38865 ft | 465 kts | 115° |
| 2026-05-03 23:55 | 2.21281 | 89.92677 | 38863 ft | 465 kts | 115° |
| 2026-05-03 23:55 | 2.18410 | 89.98468 | 38855 ft | 465 kts | 115° |
| 2026-05-03 23:56 | 2.15537 | 90.04263 | 38861 ft | 465 kts | 115° |
| 2026-05-03 23:56 | 2.12684 | 90.10017 | 38866 ft | 464 kts | 115° |
| 2026-05-03 23:57 | 2.09795 | 90.15842 | 38868 ft | 464 kts | 115° |
| 2026-05-03 23:57 | 2.06929 | 90.21622 | 38866 ft | 464 kts | 115° |
| 2026-05-03 23:58 | 2.04078 | 90.27369 | 38865 ft | 464 kts | 115° |
| 2026-05-03 23:58 | 2.01212 | 90.33146 | 38876 ft | 464 kts | 115° |
| 2026-05-03 23:59 | 1.98809 | 90.37991 | 38864 ft | 464 kts | 115° |
| 2026-05-03 23:59 | 1.95945 | 90.43763 | 38867 ft | 463 kts | 115° |
| 2026-05-04 00:00 | 1.93078 | 90.49541 | 38869 ft | 463 kts | 115° |
| 2026-05-04 00:00 | 1.90217 | 90.55307 | 38874 ft | 463 kts | 115° |
| 2026-05-04 00:01 | 1.87354 | 90.61075 | 38868 ft | 463 kts | 115° |
| 2026-05-04 00:01 | 1.84511 | 90.66803 | 38864 ft | 463 kts | 115° |
| 2026-05-04 00:02 | 1.81651 | 90.72565 | 38874 ft | 463 kts | 115° |
| 2026-05-04 00:02 | 1.78791 | 90.78326 | 38868 ft | 462 kts | 115° |
| 2026-05-04 00:03 | 1.75934 | 90.84080 | 38868 ft | 462 kts | 115° |
| 2026-05-04 00:03 | 1.73077 | 90.89834 | 38869 ft | 462 kts | 115° |
| 2026-05-04 00:04 | 1.70219 | 90.95588 | 38875 ft | 462 kts | 115° |
| 2026-05-04 00:04 | 1.67365 | 91.01336 | 38867 ft | 461 kts | 115° |
| 2026-05-04 00:05 | 1.64510 | 91.07085 | 38873 ft | 461 kts | 115° |
| 2026-05-04 00:05 | 1.61655 | 91.12832 | 38873 ft | 461 kts | 115° |
| 2026-05-04 00:06 | 1.58821 | 91.18537 | 38870 ft | 461 kts | 115° |
| 2026-05-04 00:06 | 1.55967 | 91.24282 | 38864 ft | 461 kts | 115° |
| 2026-05-04 00:07 | 1.53110 | 91.30032 | 38871 ft | 461 kts | 115° |
| 2026-05-04 00:07 | 1.50257 | 91.35774 | 38873 ft | 461 kts | 115° |
| 2026-05-04 00:08 | 1.47403 | 91.41516 | 38868 ft | 461 kts | 115° |
| 2026-05-04 00:08 | 1.44549 | 91.47259 | 38880 ft | 461 kts | 115° |
| 2026-05-04 00:09 | 1.41696 | 91.53000 | 38877 ft | 461 kts | 115° |
| 2026-05-04 00:09 | 1.38844 | 91.58738 | 38875 ft | 460 kts | 115° |
| 2026-05-04 00:10 | 1.35995 | 91.64469 | 38884 ft | 460 kts | 115° |
| 2026-05-04 00:10 | 1.33147 | 91.70198 | 38882 ft | 460 kts | 115° |
| 2026-05-04 00:11 | 1.30303 | 91.75920 | 38879 ft | 460 kts | 115° |
| 2026-05-04 00:11 | 1.27459 | 91.81641 | 38883 ft | 459 kts | 115° |
| 2026-05-04 00:12 | 1.24613 | 91.87363 | 38883 ft | 459 kts | 115° |
| 2026-05-04 00:12 | 1.21770 | 91.93083 | 38932 ft | 461 kts | 115° |
| 2026-05-04 00:13 | 1.20364 | 91.95909 | 39075 ft | 460 kts | 115° |
| 2026-05-04 00:13 | 1.18936 | 91.98781 | 39237 ft | 459 kts | 115° |
| 2026-05-04 00:13 | 1.17520 | 92.01634 | 39382 ft | 459 kts | 115° |
| 2026-05-04 00:13 | 1.16120 | 92.04499 | 39519 ft | 458 kts | 115° |
| 2026-05-04 00:14 | 1.14726 | 92.07371 | 39657 ft | 458 kts | 115° |
| 2026-05-04 00:14 | 1.13337 | 92.10234 | 39797 ft | 457 kts | 115° |
| 2026-05-04 00:14 | 1.11947 | 92.13094 | 39935 ft | 457 kts | 115° |
| 2026-05-04 00:14 | 1.10558 | 92.15949 | 40070 ft | 456 kts | 115° |
| 2026-05-04 00:15 | 1.09167 | 92.18804 | 40215 ft | 456 kts | 115° |
| 2026-05-04 00:15 | 1.07780 | 92.21651 | 40330 ft | 456 kts | 115° |
| 2026-05-04 00:15 | 1.06391 | 92.24501 | 40468 ft | 455 kts | 115° |
| 2026-05-04 00:15 | 1.05024 | 92.27305 | 40594 ft | 455 kts | 115° |
| 2026-05-04 00:16 | 1.03640 | 92.30145 | 40727 ft | 454 kts | 115° |
| 2026-05-04 00:16 | 1.02257 | 92.32983 | 40840 ft | 454 kts | 115° |
| 2026-05-04 00:16 | 0.99494 | 92.38652 | 40880 ft | 453 kts | 115° |
| 2026-05-04 00:17 | 0.96736 | 92.44310 | 40878 ft | 453 kts | 115° |
| 2026-05-04 00:17 | 0.93979 | 92.49966 | 40877 ft | 453 kts | 115° |
| 2026-05-04 00:18 | 0.91206 | 92.55655 | 40882 ft | 457 kts | 115° |
| 2026-05-04 00:18 | 0.88415 | 92.61382 | 40903 ft | 459 kts | 115° |
| 2026-05-04 00:19 | 0.85611 | 92.67132 | 40905 ft | 461 kts | 115° |
| 2026-05-04 00:19 | 0.82801 | 92.72895 | 40905 ft | 462 kts | 115° |
| 2026-05-04 00:20 | 0.79990 | 92.78661 | 40885 ft | 462 kts | 115° |
| 2026-05-04 00:20 | 0.77171 | 92.84442 | 40879 ft | 462 kts | 115° |
| 2026-05-04 00:21 | 0.74354 | 92.90219 | 40878 ft | 463 kts | 115° |
| 2026-05-04 00:21 | 0.71538 | 92.95995 | 40891 ft | 462 kts | 115° |
| 2026-05-04 00:22 | 0.68738 | 93.01736 | 40906 ft | 462 kts | 115° |
| 2026-05-04 00:22 | 0.65920 | 93.07514 | 40907 ft | 462 kts | 115° |
| 2026-05-04 00:23 | 0.63103 | 93.13291 | 40907 ft | 462 kts | 115° |
| 2026-05-04 00:23 | 0.60280 | 93.19079 | 40894 ft | 462 kts | 115° |
| 2026-05-04 00:24 | 0.57464 | 93.24853 | 40889 ft | 463 kts | 115° |
| 2026-05-04 00:24 | 0.54647 | 93.30628 | 40885 ft | 463 kts | 115° |
| 2026-05-04 00:25 | 0.51826 | 93.36413 | 40891 ft | 462 kts | 115° |
| 2026-05-04 00:25 | 0.49007 | 93.42191 | 40904 ft | 462 kts | 115° |
| 2026-05-04 00:26 | 0.46189 | 93.47968 | 40904 ft | 462 kts | 115° |
| 2026-05-04 00:26 | 0.43388 | 93.53711 | 40902 ft | 462 kts | 115° |
| 2026-05-04 00:27 | 0.40569 | 93.59489 | 40898 ft | 462 kts | 115° |
| 2026-05-04 00:27 | 0.37751 | 93.65267 | 40890 ft | 463 kts | 115° |
| 2026-05-04 00:28 | 0.34933 | 93.71040 | 40889 ft | 463 kts | 115° |
| 2026-05-04 00:28 | 0.32111 | 93.76812 | 40891 ft | 462 kts | 115° |
| 2026-05-04 00:29 | 0.29285 | 93.82591 | 40901 ft | 462 kts | 115° |
| 2026-05-04 00:29 | 0.26460 | 93.88372 | 40924 ft | 462 kts | 115° |
| 2026-05-04 00:30 | 0.23638 | 93.94146 | 40921 ft | 462 kts | 115° |
| 2026-05-04 00:30 | 0.20817 | 93.99916 | 40903 ft | 462 kts | 115° |
| 2026-05-04 00:31 | 0.17996 | 94.05688 | 40894 ft | 462 kts | 115° |
| 2026-05-04 00:31 | 0.15187 | 94.11434 | 40897 ft | 462 kts | 115° |
| 2026-05-04 00:32 | 0.12370 | 94.17196 | 40900 ft | 461 kts | 115° |
| 2026-05-04 00:32 | 0.09581 | 94.22899 | 40922 ft | 450 kts | 115° |
| 2026-05-04 00:33 | 0.05464 | 94.31326 | 40930 ft | 451 kts | 115° |
| 2026-05-04 00:34 | 0.02712 | 94.36956 | 40924 ft | 450 kts | 115° |
| 2026-05-04 00:34 | -0.00042 | 94.42590 | 40902 ft | 451 kts | 115° |
| 2026-05-04 00:35 | -0.02790 | 94.48211 | 40895 ft | 451 kts | 115° |
| 2026-05-04 00:35 | -0.05524 | 94.53805 | 40902 ft | 450 kts | 115° |
| 2026-05-04 00:36 | -0.08273 | 94.59427 | 40919 ft | 450 kts | 115° |
| 2026-05-04 00:36 | -0.11020 | 94.65048 | 40920 ft | 450 kts | 115° |
| 2026-05-04 00:37 | -0.13769 | 94.70672 | 40921 ft | 450 kts | 115° |
| 2026-05-04 00:37 | -0.16519 | 94.76297 | 40906 ft | 450 kts | 115° |
| 2026-05-04 00:38 | -0.19271 | 94.81927 | 40900 ft | 451 kts | 115° |
| 2026-05-04 00:38 | -0.22020 | 94.87552 | 40908 ft | 451 kts | 115° |
| 2026-05-04 00:39 | -0.24772 | 94.93182 | 40931 ft | 451 kts | 115° |
| 2026-05-04 00:39 | -0.27523 | 94.98811 | 40926 ft | 451 kts | 115° |
| 2026-05-04 00:40 | -0.30263 | 95.04416 | 40928 ft | 451 kts | 115° |
| 2026-05-04 00:40 | -0.33024 | 95.10064 | 40913 ft | 452 kts | 115° |
| 2026-05-04 00:41 | -0.35782 | 95.15707 | 40910 ft | 452 kts | 115° |
| 2026-05-04 00:41 | -0.38541 | 95.21352 | 40930 ft | 452 kts | 115° |
| 2026-05-04 00:42 | -0.41303 | 95.27002 | 40936 ft | 452 kts | 114° |
| 2026-05-04 00:42 | -0.44046 | 95.32614 | 40930 ft | 452 kts | 114° |
| 2026-05-04 00:43 | -0.46803 | 95.38255 | 40931 ft | 452 kts | 114° |
| 2026-05-04 00:43 | -0.49560 | 95.43897 | 40925 ft | 452 kts | 114° |
| 2026-05-04 00:44 | -0.52321 | 95.49546 | 40934 ft | 452 kts | 114° |
| 2026-05-04 00:44 | -0.54632 | 95.54274 | 40934 ft | 452 kts | 114° |
| 2026-05-04 00:45 | -0.57387 | 95.59912 | 40931 ft | 452 kts | 114° |
| 2026-05-04 00:45 | -0.60142 | 95.65551 | 40932 ft | 451 kts | 114° |
| 2026-05-04 00:46 | -0.62883 | 95.71160 | 40933 ft | 451 kts | 114° |
| 2026-05-04 00:46 | -0.65635 | 95.76792 | 40934 ft | 451 kts | 114° |
| 2026-05-04 00:47 | -0.68390 | 95.82431 | 40933 ft | 451 kts | 114° |
| 2026-05-04 00:47 | -0.71142 | 95.88061 | 40926 ft | 450 kts | 114° |
| 2026-05-04 00:48 | -0.73872 | 95.93648 | 40930 ft | 450 kts | 114° |
| 2026-05-04 00:48 | -0.76621 | 95.99277 | 40938 ft | 450 kts | 114° |
| 2026-05-04 00:49 | -0.79373 | 96.04909 | 40935 ft | 450 kts | 114° |
| 2026-05-04 00:49 | -0.82121 | 96.10534 | 40935 ft | 450 kts | 114° |
| 2026-05-04 00:50 | -0.84863 | 96.16147 | 40929 ft | 450 kts | 114° |
| 2026-05-04 00:50 | -0.87609 | 96.21768 | 40933 ft | 450 kts | 114° |
| 2026-05-04 00:51 | -0.90351 | 96.27383 | 40938 ft | 449 kts | 114° |
| 2026-05-04 00:51 | -0.93094 | 96.32998 | 40936 ft | 449 kts | 114° |
| 2026-05-04 00:52 | -0.95816 | 96.38571 | 40931 ft | 449 kts | 114° |
| 2026-05-04 00:52 | -0.98559 | 96.44188 | 40931 ft | 449 kts | 114° |
| 2026-05-04 00:53 | -1.01301 | 96.49801 | 40942 ft | 449 kts | 114° |
| 2026-05-04 00:53 | -1.04039 | 96.55409 | 40943 ft | 449 kts | 114° |
| 2026-05-04 00:54 | -1.06782 | 96.61026 | 40945 ft | 449 kts | 114° |
| 2026-05-04 00:54 | -1.09523 | 96.66639 | 40935 ft | 449 kts | 114° |
| 2026-05-04 00:55 | -1.12263 | 96.72251 | 40941 ft | 449 kts | 114° |
| 2026-05-04 00:55 | -1.14986 | 96.77829 | 40944 ft | 449 kts | 114° |
| 2026-05-04 00:56 | -1.17732 | 96.83453 | 40939 ft | 450 kts | 114° |
| 2026-05-04 00:56 | -1.20474 | 96.89069 | 40944 ft | 450 kts | 114° |
| 2026-05-04 00:57 | -1.23216 | 96.94687 | 40942 ft | 450 kts | 114° |
| 2026-05-04 00:57 | -1.25958 | 97.00303 | 40943 ft | 449 kts | 114° |
| 2026-05-04 00:58 | -1.28696 | 97.05914 | 40939 ft | 449 kts | 114° |
| 2026-05-04 00:58 | -1.31438 | 97.11532 | 40942 ft | 450 kts | 114° |
| 2026-05-04 00:59 | -1.34182 | 97.17154 | 40934 ft | 450 kts | 114° |
| 2026-05-04 00:59 | -1.36926 | 97.22779 | 40936 ft | 450 kts | 114° |
| 2026-05-04 01:00 | -1.39655 | 97.28370 | 40940 ft | 450 kts | 114° |
| 2026-05-04 01:00 | -1.42405 | 97.34006 | 40940 ft | 450 kts | 114° |
| 2026-05-04 01:01 | -1.45153 | 97.39639 | 40947 ft | 451 kts | 115° |
| 2026-05-04 01:01 | -1.47902 | 97.45273 | 40951 ft | 451 kts | 115° |
| 2026-05-04 01:02 | -1.50656 | 97.50919 | 40942 ft | 452 kts | 114° |
| 2026-05-04 01:02 | -1.53409 | 97.56563 | 40944 ft | 452 kts | 114° |
| 2026-05-04 01:03 | -1.56164 | 97.62212 | 40945 ft | 452 kts | 114° |
| 2026-05-04 01:03 | -1.58923 | 97.67868 | 40949 ft | 453 kts | 114° |
| 2026-05-04 01:04 | -1.61649 | 97.73546 | 40948 ft | 453 kts | 114° |
| 2026-05-04 01:04 | -1.64332 | 97.79242 | 40946 ft | 453 kts | 114° |
| 2026-05-04 01:05 | -1.67022 | 97.84934 | 40946 ft | 453 kts | 114° |
| 2026-05-04 01:05 | -1.69721 | 97.90632 | 40950 ft | 453 kts | 114° |
| 2026-05-04 01:06 | -1.72405 | 97.96297 | 40940 ft | 454 kts | 114° |
| 2026-05-04 01:06 | -1.75109 | 98.02004 | 40941 ft | 454 kts | 114° |
| 2026-05-04 01:07 | -1.77815 | 98.07717 | 40941 ft | 455 kts | 114° |
| 2026-05-04 01:07 | -1.80521 | 98.13431 | 40944 ft | 455 kts | 114° |
| 2026-05-04 01:08 | -1.83234 | 98.19160 | 40938 ft | 456 kts | 114° |
| 2026-05-04 01:08 | -1.85948 | 98.24890 | 40939 ft | 456 kts | 114° |
| 2026-05-04 01:09 | -1.88663 | 98.30625 | 40942 ft | 457 kts | 114° |
| 2026-05-04 01:09 | -1.91387 | 98.36378 | 40951 ft | 458 kts | 114° |
| 2026-05-04 01:10 | -1.94118 | 98.42146 | 40943 ft | 458 kts | 114° |
| 2026-05-04 01:10 | -1.96845 | 98.47907 | 40941 ft | 459 kts | 114° |
| 2026-05-04 01:11 | -1.99562 | 98.53647 | 40943 ft | 460 kts | 114° |
| 2026-05-04 01:11 | -2.02297 | 98.59428 | 40946 ft | 460 kts | 114° |
| 2026-05-04 01:12 | -2.05036 | 98.65215 | 40945 ft | 461 kts | 114° |
| 2026-05-04 01:12 | -2.07780 | 98.71014 | 40943 ft | 461 kts | 114° |
| 2026-05-04 01:13 | -2.10521 | 98.76809 | 40949 ft | 461 kts | 114° |
| 2026-05-04 01:13 | -2.13262 | 98.82604 | 40951 ft | 461 kts | 114° |
| 2026-05-04 01:14 | -2.16007 | 98.88408 | 40951 ft | 461 kts | 114° |
| 2026-05-04 01:14 | -2.18736 | 98.94177 | 40951 ft | 461 kts | 114° |
| 2026-05-04 01:15 | -2.21478 | 98.99975 | 40953 ft | 461 kts | 114° |
| 2026-05-04 01:15 | -2.24217 | 99.05768 | 40947 ft | 461 kts | 114° |
| 2026-05-04 01:16 | -2.26953 | 99.11556 | 40952 ft | 460 kts | 114° |
| 2026-05-04 01:16 | -2.29689 | 99.17345 | 40949 ft | 460 kts | 114° |
| 2026-05-04 01:17 | -2.32424 | 99.23132 | 40947 ft | 460 kts | 114° |
| 2026-05-04 01:17 | -2.35159 | 99.28918 | 40953 ft | 460 kts | 114° |
| 2026-05-04 01:18 | -2.37895 | 99.34710 | 40952 ft | 460 kts | 114° |
| 2026-05-04 01:18 | -2.40629 | 99.40497 | 40938 ft | 460 kts | 114° |
| 2026-05-04 01:19 | -2.43362 | 99.46283 | 40938 ft | 461 kts | 114° |
| 2026-05-04 01:19 | -2.45953 | 99.52137 | 40940 ft | 460 kts | 109° |
| 2026-05-04 01:20 | -2.47625 | 99.58304 | 40938 ft | 459 kts | 99° |
| 2026-05-04 01:20 | -2.48291 | 99.64650 | 40936 ft | 459 kts | 92° |
| 2026-05-04 01:21 | -2.48643 | 99.71032 | 40936 ft | 460 kts | 92° |
| 2026-05-04 01:21 | -2.49019 | 99.77378 | 40945 ft | 460 kts | 92° |
| 2026-05-04 01:22 | -2.49397 | 99.83785 | 40943 ft | 461 kts | 92° |
| 2026-05-04 01:22 | -2.49771 | 99.90184 | 40945 ft | 461 kts | 92° |
| 2026-05-04 01:23 | -2.50145 | 99.96591 | 40945 ft | 461 kts | 92° |
| 2026-05-04 01:23 | -2.50519 | 100.03000 | 40946 ft | 461 kts | 92° |
| 2026-05-04 01:24 | -2.50892 | 100.09408 | 40950 ft | 461 kts | 92° |
| 2026-05-04 01:24 | -2.51265 | 100.15814 | 40948 ft | 461 kts | 92° |
| 2026-05-04 01:25 | -2.51637 | 100.22214 | 40952 ft | 461 kts | 92° |
| 2026-05-04 01:25 | -2.52009 | 100.28612 | 40948 ft | 461 kts | 92° |
| 2026-05-04 01:26 | -2.52379 | 100.34969 | 40948 ft | 460 kts | 92° |
| 2026-05-04 01:26 | -2.52749 | 100.41356 | 40950 ft | 460 kts | 92° |
| 2026-05-04 01:27 | -2.53120 | 100.47742 | 40949 ft | 459 kts | 92° |
| 2026-05-04 01:27 | -2.53427 | 100.53045 | 40947 ft | 459 kts | 93° |
| 2026-05-04 01:28 | -2.53796 | 100.59421 | 40944 ft | 459 kts | 93° |
| 2026-05-04 01:28 | -2.54165 | 100.65794 | 40941 ft | 459 kts | 93° |
| 2026-05-04 01:29 | -2.54534 | 100.72171 | 40934 ft | 459 kts | 93° |
| 2026-05-04 01:29 | -2.54903 | 100.78550 | 40938 ft | 459 kts | 93° |
| 2026-05-04 01:30 | -2.55271 | 100.84929 | 40933 ft | 459 kts | 93° |
| 2026-05-04 01:30 | -2.55639 | 100.91303 | 40936 ft | 459 kts | 93° |
| 2026-05-04 01:31 | -2.56004 | 100.97644 | 40935 ft | 459 kts | 93° |
| 2026-05-04 01:31 | -2.56372 | 101.04030 | 40935 ft | 459 kts | 93° |
| 2026-05-04 01:32 | -2.56739 | 101.10409 | 40942 ft | 460 kts | 93° |
| 2026-05-04 01:32 | -2.57106 | 101.16792 | 40943 ft | 460 kts | 93° |
| 2026-05-04 01:33 | -2.57473 | 101.23184 | 40945 ft | 460 kts | 93° |
| 2026-05-04 01:33 | -2.57840 | 101.29586 | 40955 ft | 461 kts | 93° |
| 2026-05-04 01:34 | -2.58207 | 101.35990 | 40960 ft | 461 kts | 93° |
| 2026-05-04 01:34 | -2.58571 | 101.42343 | 40964 ft | 461 kts | 93° |
| 2026-05-04 01:35 | -2.58938 | 101.48746 | 40977 ft | 461 kts | 93° |
| 2026-05-04 01:35 | -2.59304 | 101.55141 | 40984 ft | 461 kts | 93° |
| 2026-05-04 01:36 | -2.59670 | 101.61535 | 40988 ft | 460 kts | 93° |
| 2026-05-04 01:36 | -2.60034 | 101.67920 | 40993 ft | 460 kts | 93° |
| 2026-05-04 01:37 | -2.60396 | 101.74298 | 40994 ft | 459 kts | 93° |
| 2026-05-04 01:37 | -2.60760 | 101.80678 | 40996 ft | 459 kts | 93° |
| 2026-05-04 01:38 | -2.61123 | 101.87058 | 41002 ft | 459 kts | 93° |
| 2026-05-04 01:38 | -2.61483 | 101.93393 | 40999 ft | 459 kts | 93° |
| 2026-05-04 01:39 | -2.61845 | 101.99761 | 41000 ft | 458 kts | 93° |
| 2026-05-04 01:39 | -2.62205 | 102.06127 | 41001 ft | 458 kts | 93° |
| 2026-05-04 01:40 | -2.62566 | 102.12480 | 41001 ft | 457 kts | 93° |
| 2026-05-04 01:40 | -2.62945 | 102.18829 | 40989 ft | 457 kts | 94° |
| 2026-05-04 01:41 | -2.63608 | 102.25147 | 40981 ft | 457 kts | 96° |
| 2026-05-04 01:41 | -2.64299 | 102.31465 | 40983 ft | 456 kts | 95° |
| 2026-05-04 01:42 | -2.64949 | 102.37747 | 40967 ft | 456 kts | 95° |
| 2026-05-04 01:42 | -2.65591 | 102.44061 | 40968 ft | 456 kts | 95° |
| 2026-05-04 01:43 | -2.66232 | 102.50379 | 40960 ft | 456 kts | 95° |
| 2026-05-04 01:43 | -2.66872 | 102.56691 | 40957 ft | 456 kts | 95° |
| 2026-05-04 01:44 | -2.67512 | 102.62998 | 40950 ft | 456 kts | 95° |
| 2026-05-04 01:44 | -2.68152 | 102.69314 | 40945 ft | 456 kts | 95° |
| 2026-05-04 01:45 | -2.68793 | 102.75635 | 40939 ft | 456 kts | 95° |
| 2026-05-04 01:45 | -2.69752 | 102.85106 | 40934 ft | 457 kts | 95° |
| 2026-05-04 01:46 | -2.70392 | 102.91427 | 40927 ft | 457 kts | 95° |
| 2026-05-04 01:46 | -2.71028 | 102.97713 | 40935 ft | 457 kts | 95° |
| 2026-05-04 01:47 | -2.71670 | 103.04052 | 40928 ft | 458 kts | 95° |
| 2026-05-04 01:47 | -2.72311 | 103.10394 | 40926 ft | 458 kts | 95° |
| 2026-05-04 01:48 | -2.72952 | 103.16744 | 40926 ft | 459 kts | 95° |
| 2026-05-04 01:48 | -2.73594 | 103.23104 | 40926 ft | 460 kts | 95° |
| 2026-05-04 01:49 | -2.74237 | 103.29474 | 40925 ft | 460 kts | 95° |
| 2026-05-04 01:49 | -2.74877 | 103.35815 | 40928 ft | 461 kts | 95° |
| 2026-05-04 01:50 | -2.75520 | 103.42199 | 40929 ft | 461 kts | 95° |
| 2026-05-04 01:50 | -2.76164 | 103.48582 | 40931 ft | 461 kts | 95° |
| 2026-05-04 01:51 | -2.76806 | 103.54965 | 40933 ft | 461 kts | 95° |
| 2026-05-04 01:51 | -2.77449 | 103.61352 | 40930 ft | 461 kts | 95° |
| 2026-05-04 01:52 | -2.78091 | 103.67736 | 40934 ft | 461 kts | 95° |
| 2026-05-04 01:52 | -2.78733 | 103.74117 | 40937 ft | 460 kts | 95° |
| 2026-05-04 01:53 | -2.79372 | 103.80486 | 40941 ft | 460 kts | 95° |
| 2026-05-04 01:53 | -2.80012 | 103.86856 | 40924 ft | 460 kts | 95° |
| 2026-05-04 01:54 | -2.80651 | 103.93219 | 40925 ft | 459 kts | 95° |
| 2026-05-04 01:54 | -2.81289 | 103.99579 | 40921 ft | 459 kts | 95° |
| 2026-05-04 01:55 | -2.81922 | 104.05893 | 40933 ft | 458 kts | 95° |
| 2026-05-04 01:55 | -2.82558 | 104.12243 | 40936 ft | 458 kts | 95° |
| 2026-05-04 01:56 | -2.83194 | 104.18591 | 40918 ft | 458 kts | 95° |
| 2026-05-04 01:56 | -2.83828 | 104.24934 | 40912 ft | 458 kts | 95° |
| 2026-05-04 01:57 | -2.84462 | 104.31270 | 40919 ft | 458 kts | 95° |
| 2026-05-04 01:57 | -2.85096 | 104.37608 | 40917 ft | 458 kts | 95° |
| 2026-05-04 01:58 | -2.85729 | 104.43944 | 40922 ft | 458 kts | 95° |
| 2026-05-04 01:58 | -2.86358 | 104.50251 | 40938 ft | 458 kts | 95° |
| 2026-05-04 01:59 | -2.86991 | 104.56588 | 40927 ft | 458 kts | 95° |
| 2026-05-04 01:59 | -2.88142 | 104.62841 | 40927 ft | 459 kts | 107° |
| 2026-05-04 02:00 | -2.90874 | 104.68612 | 40930 ft | 461 kts | 122° |
| 2026-05-04 02:00 | -2.94889 | 104.73641 | 40942 ft | 463 kts | 129° |
| 2026-05-04 02:01 | -2.99063 | 104.78564 | 40944 ft | 463 kts | 129° |
| 2026-05-04 02:01 | -3.03219 | 104.83495 | 40922 ft | 464 kts | 129° |
| 2026-05-04 02:02 | -3.07352 | 104.88395 | 40915 ft | 464 kts | 129° |
| 2026-05-04 02:02 | -3.11515 | 104.93329 | 40916 ft | 464 kts | 129° |
| 2026-05-04 02:03 | -3.15679 | 104.98265 | 40932 ft | 464 kts | 129° |
| 2026-05-04 02:03 | -3.19839 | 105.03196 | 40937 ft | 464 kts | 129° |
| 2026-05-04 02:04 | -3.24006 | 105.08137 | 40923 ft | 464 kts | 129° |
| 2026-05-04 02:04 | -3.28171 | 105.13075 | 40911 ft | 465 kts | 129° |
| 2026-05-04 02:05 | -3.32342 | 105.18022 | 40913 ft | 465 kts | 129° |
| 2026-05-04 02:05 | -3.36512 | 105.22968 | 40941 ft | 465 kts | 129° |
| 2026-05-04 02:06 | -3.40681 | 105.27915 | 40940 ft | 465 kts | 129° |
| 2026-05-04 02:06 | -3.44854 | 105.32866 | 40916 ft | 465 kts | 129° |
| 2026-05-04 02:07 | -3.49028 | 105.37820 | 40919 ft | 465 kts | 129° |
| 2026-05-04 02:07 | -3.53199 | 105.42771 | 40943 ft | 465 kts | 129° |
| 2026-05-04 02:08 | -3.57371 | 105.47723 | 40941 ft | 465 kts | 129° |
| 2026-05-04 02:08 | -3.61541 | 105.52675 | 40941 ft | 465 kts | 129° |
| 2026-05-04 02:09 | -3.65722 | 105.57630 | 40918 ft | 465 kts | 129° |
| 2026-05-04 02:09 | -3.69874 | 105.62548 | 40944 ft | 465 kts | 129° |
| 2026-05-04 02:10 | -3.74047 | 105.67495 | 40951 ft | 465 kts | 129° |
| 2026-05-04 02:10 | -3.78220 | 105.72442 | 40946 ft | 465 kts | 129° |
| 2026-05-04 02:11 | -3.82396 | 105.77393 | 40943 ft | 465 kts | 129° |
| 2026-05-04 02:11 | -3.85893 | 105.81540 | 40953 ft | 465 kts | 129° |
| 2026-05-04 02:12 | -3.90064 | 105.86487 | 40950 ft | 465 kts | 129° |
| 2026-05-04 02:12 | -3.94237 | 105.91438 | 40927 ft | 465 kts | 129° |
| 2026-05-04 02:13 | -3.98383 | 105.96356 | 40926 ft | 465 kts | 129° |
| 2026-05-04 02:13 | -4.02617 | 106.01260 | 40926 ft | 465 kts | 133° |
| 2026-05-04 02:14 | -4.07447 | 106.05577 | 40948 ft | 466 kts | 142° |
| 2026-05-04 02:14 | -4.12727 | 106.09365 | 40951 ft | 467 kts | 143° |
| 2026-05-04 02:15 | -4.18005 | 106.13167 | 40956 ft | 467 kts | 143° |
| 2026-05-04 02:15 | -4.23283 | 106.16975 | 40944 ft | 467 kts | 143° |
| 2026-05-04 02:16 | -4.28566 | 106.20782 | 40483 ft | 468 kts | 143° |
| 2026-05-04 02:16 | -4.31217 | 106.22692 | 39790 ft | 471 kts | 143° |
| 2026-05-04 02:16 | -4.33887 | 106.24617 | 38805 ft | 477 kts | 143° |
| 2026-05-04 02:17 | -4.36593 | 106.26567 | 37775 ft | 479 kts | 143° |
| 2026-05-04 02:17 | -4.39299 | 106.28517 | 37010 ft | 476 kts | 143° |
| 2026-05-04 02:17 | -4.41975 | 106.30442 | 36549 ft | 470 kts | 143° |
| 2026-05-04 02:17 | -4.44603 | 106.32332 | 36303 ft | 473 kts | 143° |
| 2026-05-04 02:18 | -4.47295 | 106.34267 | 36064 ft | 479 kts | 143° |
| 2026-05-04 02:18 | -4.50007 | 106.36216 | 35821 ft | 480 kts | 143° |
| 2026-05-04 02:18 | -4.52717 | 106.38166 | 35588 ft | 480 kts | 143° |
| 2026-05-04 02:18 | -4.55433 | 106.40125 | 35353 ft | 481 kts | 143° |
| 2026-05-04 02:19 | -4.58147 | 106.42083 | 35124 ft | 482 kts | 143° |
| 2026-05-04 02:19 | -4.60873 | 106.44049 | 34891 ft | 482 kts | 143° |
| 2026-05-04 02:19 | -4.63595 | 106.46014 | 34662 ft | 483 kts | 143° |
| 2026-05-04 02:19 | -4.66326 | 106.47986 | 34433 ft | 483 kts | 143° |
| 2026-05-04 02:20 | -4.69055 | 106.49958 | 34210 ft | 484 kts | 143° |
| 2026-05-04 02:20 | -4.71786 | 106.51932 | 33992 ft | 484 kts | 143° |
| 2026-05-04 02:20 | -4.74525 | 106.53911 | 33757 ft | 485 kts | 143° |
| 2026-05-04 02:20 | -4.77263 | 106.55890 | 33494 ft | 485 kts | 143° |
| 2026-05-04 02:21 | -4.80005 | 106.57871 | 33232 ft | 486 kts | 143° |
| 2026-05-04 02:21 | -4.82753 | 106.59857 | 32986 ft | 486 kts | 143° |
| 2026-05-04 02:21 | -4.85541 | 106.61784 | 32739 ft | 488 kts | 147° |
| 2026-05-04 02:21 | -4.88523 | 106.63429 | 32490 ft | 490 kts | 153° |
| 2026-05-04 02:22 | -4.91632 | 106.64837 | 32249 ft | 491 kts | 154° |
| 2026-05-04 02:22 | -4.94744 | 106.66243 | 31924 ft | 491 kts | 154° |
| 2026-05-04 02:22 | -4.97857 | 106.67661 | 31156 ft | 492 kts | 154° |
| 2026-05-04 02:22 | -5.00983 | 106.69090 | 30107 ft | 496 kts | 154° |
| 2026-05-04 02:23 | -5.04072 | 106.70503 | 29210 ft | 492 kts | 154° |
| 2026-05-04 02:23 | -5.07193 | 106.71930 | 28596 ft | 479 kts | 154° |
| 2026-05-04 02:23 | -5.10128 | 106.73271 | 27993 ft | 462 kts | 154° |
| 2026-05-04 02:23 | -5.13041 | 106.74603 | 27288 ft | 458 kts | 154° |
| 2026-05-04 02:24 | -5.15903 | 106.75912 | 27056 ft | 444 kts | 154° |
| 2026-05-04 02:24 | -5.18669 | 106.77175 | 26717 ft | 432 kts | 154° |
| 2026-05-04 02:24 | -5.21381 | 106.78407 | 26269 ft | 425 kts | 154° |
| 2026-05-04 02:24 | -5.24066 | 106.79622 | 25682 ft | 422 kts | 154° |
| 2026-05-04 02:25 | -5.26729 | 106.80827 | 25099 ft | 418 kts | 154° |
| 2026-05-04 02:25 | -5.29374 | 106.82023 | 24515 ft | 415 kts | 154° |
| 2026-05-04 02:25 | -5.31994 | 106.83210 | 23948 ft | 411 kts | 154° |
| 2026-05-04 02:25 | -5.34597 | 106.84389 | 23345 ft | 408 kts | 154° |
| 2026-05-04 02:26 | -5.37171 | 106.85555 | 22758 ft | 402 kts | 154° |
| 2026-05-04 02:26 | -5.39706 | 106.86703 | 22200 ft | 396 kts | 154° |
| 2026-05-04 02:26 | -5.42201 | 106.87833 | 21643 ft | 390 kts | 154° |
| 2026-05-04 02:26 | -5.44660 | 106.88933 | 21301 ft | 380 kts | 156° |
| 2026-05-04 02:27 | -5.47208 | 106.89554 | 21148 ft | 378 kts | 173° |
| 2026-05-04 02:27 | -5.49825 | 106.89416 | 20729 ft | 379 kts | 190° |
| 2026-05-04 02:27 | -5.52328 | 106.88599 | 20188 ft | 378 kts | 200° |
| 2026-05-04 02:27 | -5.54743 | 106.87561 | 19610 ft | 376 kts | 202° |
| 2026-05-04 02:28 | -5.57123 | 106.86515 | 19088 ft | 371 kts | 202° |
| 2026-05-04 02:28 | -5.59464 | 106.85528 | 18591 ft | 366 kts | 201° |
| 2026-05-04 02:28 | -5.61822 | 106.84577 | 18083 ft | 362 kts | 200° |
| 2026-05-04 02:28 | -5.64147 | 106.83666 | 17573 ft | 356 kts | 199° |
| 2026-05-04 02:29 | -5.66435 | 106.82782 | 17106 ft | 349 kts | 199° |
| 2026-05-04 02:29 | -5.68690 | 106.81916 | 16639 ft | 343 kts | 199° |
| 2026-05-04 02:29 | -5.70902 | 106.81067 | 16175 ft | 338 kts | 199° |
| 2026-05-04 02:29 | -5.73079 | 106.80231 | 15719 ft | 332 kts | 199° |
| 2026-05-04 02:30 | -5.75208 | 106.79411 | 15287 ft | 327 kts | 199° |
| 2026-05-04 02:30 | -5.77312 | 106.78601 | 14851 ft | 321 kts | 199° |
| 2026-05-04 02:30 | -5.79385 | 106.77803 | 14418 ft | 316 kts | 199° |
| 2026-05-04 02:30 | -5.81419 | 106.77019 | 13994 ft | 311 kts | 199° |
| 2026-05-04 02:31 | -5.83446 | 106.76238 | 13539 ft | 319 kts | 199° |
| 2026-05-04 02:31 | -5.85561 | 106.75311 | 13080 ft | 339 kts | 210° |
| 2026-05-04 02:31 | -5.87300 | 106.73745 | 12833 ft | 334 kts | 232° |
| 2026-05-04 02:31 | -5.88368 | 106.71739 | 12698 ft | 318 kts | 248° |
| 2026-05-04 02:32 | -5.89083 | 106.69706 | 12538 ft | 300 kts | 251° |
| 2026-05-04 02:32 | -5.89713 | 106.67771 | 12405 ft | 283 kts | 251° |
| 2026-05-04 02:32 | -5.90329 | 106.65982 | 12258 ft | 266 kts | 250° |
| 2026-05-04 02:32 | -5.90959 | 106.64275 | 11995 ft | 257 kts | 248° |
| 2026-05-04 02:33 | -5.91607 | 106.62608 | 11581 ft | 255 kts | 248° |
| 2026-05-04 02:33 | -5.92264 | 106.60959 | 11179 ft | 253 kts | 247° |
| 2026-05-04 02:33 | -5.92921 | 106.59325 | 10801 ft | 252 kts | 247° |
| 2026-05-04 02:33 | -5.93577 | 106.57696 | 10423 ft | 250 kts | 247° |
| 2026-05-04 02:34 | -5.94232 | 106.56089 | 10055 ft | 248 kts | 247° |
| 2026-05-04 02:34 | -5.94875 | 106.54522 | 9894 ft | 235 kts | 246° |
| 2026-05-04 02:34 | -5.95477 | 106.53051 | 9797 ft | 221 kts | 246° |
| 2026-05-04 02:34 | -5.96049 | 106.51654 | 9653 ft | 212 kts | 246° |
| 2026-05-04 02:35 | -5.96599 | 106.50310 | 9379 ft | 210 kts | 246° |
| 2026-05-04 02:35 | -5.97152 | 106.48958 | 9099 ft | 209 kts | 246° |
| 2026-05-04 02:35 | -5.97703 | 106.47609 | 8821 ft | 208 kts | 246° |
| 2026-05-04 02:35 | -5.98247 | 106.46276 | 8648 ft | 205 kts | 246° |
| 2026-05-04 02:36 | -5.98796 | 106.44933 | 8493 ft | 209 kts | 246° |
| 2026-05-04 02:36 | -5.99343 | 106.43591 | 8345 ft | 206 kts | 246° |
| 2026-05-04 02:36 | -5.99887 | 106.42255 | 8187 ft | 207 kts | 246° |
| 2026-05-04 02:36 | -6.00430 | 106.40921 | 8047 ft | 205 kts | 246° |
| 2026-05-04 02:37 | -6.00972 | 106.39592 | 7897 ft | 205 kts | 246° |
| 2026-05-04 02:37 | -6.01504 | 106.38284 | 7826 ft | 196 kts | 246° |
| 2026-05-04 02:37 | -6.02003 | 106.37052 | 7743 ft | 185 kts | 246° |
| 2026-05-04 02:37 | -6.02480 | 106.35879 | 7546 ft | 180 kts | 246° |
| 2026-05-04 02:38 | -6.02955 | 106.34719 | 7289 ft | 179 kts | 246° |
| 2026-05-04 02:38 | -6.03426 | 106.33569 | 7097 ft | 175 kts | 246° |
| 2026-05-04 02:38 | -6.04054 | 106.32507 | 7028 ft | 179 kts | 226° |
| 2026-05-04 02:38 | -6.05052 | 106.31810 | 6953 ft | 173 kts | 200° |
| 2026-05-04 02:39 | -6.06201 | 106.31595 | 6706 ft | 170 kts | 176° |
| 2026-05-04 02:39 | -6.07364 | 106.31805 | 6438 ft | 170 kts | 163° |
| 2026-05-04 02:39 | -6.08510 | 106.32084 | 6175 ft | 170 kts | 165° |
| 2026-05-04 02:39 | -6.09665 | 106.32328 | 5914 ft | 169 kts | 167° |
| 2026-05-04 02:40 | -6.10820 | 106.32540 | 5682 ft | 168 kts | 168° |
| 2026-05-04 02:40 | -6.11974 | 106.32735 | 5423 ft | 168 kts | 168° |
| 2026-05-04 02:40 | -6.13128 | 106.32927 | 5178 ft | 167 kts | 168° |
| 2026-05-04 02:40 | -6.14266 | 106.33119 | 5056 ft | 166 kts | 168° |
| 2026-05-04 02:41 | -6.15422 | 106.33318 | 5011 ft | 167 kts | 168° |
| 2026-05-04 02:41 | -6.16563 | 106.33515 | 5019 ft | 169 kts | 168° |
| 2026-05-04 02:41 | -6.17720 | 106.33715 | 5014 ft | 167 kts | 168° |
| 2026-05-04 02:41 | -6.18863 | 106.33914 | 5011 ft | 168 kts | 168° |
| 2026-05-04 02:42 | -6.20006 | 106.34153 | 4987 ft | 167 kts | 160° |
| 2026-05-04 02:42 | -6.20956 | 106.34777 | 4855 ft | 163 kts | 131° |
| 2026-05-04 02:42 | -6.21557 | 106.35734 | 4619 ft | 162 kts | 117° |
| 2026-05-04 02:42 | -6.22101 | 106.36736 | 4351 ft | 163 kts | 118° |
| 2026-05-04 02:43 | -6.22671 | 106.37721 | 4119 ft | 162 kts | 120° |
| 2026-05-04 02:43 | -6.23255 | 106.38680 | 4025 ft | 163 kts | 121° |
| 2026-05-04 02:43 | -6.23628 | 106.39752 | 3985 ft | 161 kts | 95° |
| 2026-05-04 02:43 | -6.23515 | 106.40844 | 3882 ft | 154 kts | 75° |
| 2026-05-04 02:44 | -6.23150 | 106.41904 | 3818 ft | 166 kts | 69° |
| 2026-05-04 02:44 | -6.22728 | 106.42957 | 3740 ft | 160 kts | 68° |
| 2026-05-04 02:44 | -6.22306 | 106.44022 | 3675 ft | 164 kts | 69° |
| 2026-05-04 02:44 | -6.21894 | 106.45068 | 3602 ft | 160 kts | 69° |
| 2026-05-04 02:45 | -6.21470 | 106.46135 | 3524 ft | 165 kts | 69° |
| 2026-05-04 02:45 | -6.21055 | 106.47190 | 3366 ft | 160 kts | 69° |
| 2026-05-04 02:45 | -6.20644 | 106.48233 | 3198 ft | 162 kts | 69° |
| 2026-05-04 02:45 | -6.20223 | 106.49289 | 3011 ft | 163 kts | 69° |
| 2026-05-04 02:46 | -6.19806 | 106.50343 | 2807 ft | 161 kts | 69° |
| 2026-05-04 02:46 | -6.19392 | 106.51390 | 2614 ft | 161 kts | 69° |
| 2026-05-04 02:46 | -6.18979 | 106.52434 | 2403 ft | 159 kts | 70° |
| 2026-05-04 02:46 | -6.18575 | 106.53461 | 2210 ft | 156 kts | 69° |
| 2026-05-04 02:47 | -6.18168 | 106.54484 | 2019 ft | 159 kts | 69° |
| 2026-05-04 02:47 | -6.17767 | 106.55495 | 1813 ft | 152 kts | 68° |
| 2026-05-04 02:47 | -6.17392 | 106.56448 | 1631 ft | 141 kts | 68° |
| 2026-05-04 02:47 | -6.17022 | 106.57385 | 1434 ft | 146 kts | 70° |
| 2026-05-04 02:48 | -6.16654 | 106.58308 | 1248 ft | 141 kts | 69° |
| 2026-05-04 02:48 | -6.16284 | 106.59241 | 1060 ft | 143 kts | 69° |
| 2026-05-04 02:48 | -6.15921 | 106.60157 | 905 ft | 146 kts | 69° |
| 2026-05-04 02:48 | -6.15568 | 106.61050 | 733 ft | 142 kts | 69° |
| 2026-05-04 02:49 | -6.15345 | 106.61610 | 630 ft | 144 kts | 69° |
| 2026-05-04 02:49 | -6.15079 | 106.62278 | 505 ft | 150 kts | 69° |
| 2026-05-04 02:49 | -6.14708 | 106.63227 | 297 ft | 143 kts | 70° |
| 2026-05-04 02:49 | -6.14349 | 106.64176 | 125 ft | 145 kts | 71° |
| 2026-05-04 02:50 | -6.14013 | 106.65082 | 43 ft | 123 kts | 68° |
| 2026-05-04 02:50 | -6.13741 | 106.65657 | 45 ft | 64 kts | 68° |
| 2026-05-04 02:50 | -6.13626 | 106.65962 | 45 ft | 42 kts | 69° |
| 2026-05-04 02:50 | -6.13517 | 106.66182 | 45 ft | 19 kts | 48° |
| 2026-05-04 02:51 | -6.13422 | 106.66266 | 46 ft | 17 kts | 40° |
| 2026-05-04 02:51 | -6.13311 | 106.66296 | 45 ft | 18 kts | 343° |
| 2026-05-04 02:51 | -6.13232 | 106.66268 | 44 ft | 17 kts | 348° |
| 2026-05-04 02:51 | -6.13181 | 106.66324 | 42 ft | 10 kts | 68° |
| 2026-05-04 02:52 | -6.13160 | 106.66375 | 44 ft | 14 kts | 68° |
| 2026-05-04 02:52 | -6.13119 | 106.66480 | 44 ft | 18 kts | 68° |
| 2026-05-04 02:52 | -6.13064 | 106.66619 | 44 ft | 24 kts | 69° |
| 2026-05-04 02:52 | -6.12996 | 106.66785 | 44 ft | 28 kts | 69° |
| 2026-05-04 02:53 | -6.12921 | 106.66978 | 44 ft | 31 kts | 69° |
| 2026-05-04 02:53 | -6.12840 | 106.67182 | 44 ft | 30 kts | 66° |
| 2026-05-04 02:53 | -6.12795 | 106.67290 | 44 ft | 8 kts | 67° |
| 2026-05-04 02:53 | -6.12789 | 106.67353 | 44 ft | 9 kts | 114° |
| 2026-05-04 02:54 | -6.12836 | 106.67407 | 45 ft | 12 kts | 114° |
| 2026-05-04 02:54 | -6.12803 | 106.67496 | 44 ft | 17 kts | 60° |
| 2026-05-04 02:54 | -6.12736 | 106.67615 | 43 ft | 22 kts | 60° |
| 2026-05-04 02:54 | -6.12645 | 106.67757 | 44 ft | 26 kts | 52° |
| 2026-05-04 02:55 | -6.12267 | 106.67833 | 46 ft | 33 kts | 339° |
| 2026-05-04 02:55 | -6.12057 | 106.67749 | 53 ft | 32 kts | 338° |
| 2026-05-04 02:55 | -6.11849 | 106.67665 | 61 ft | 32 kts | 338° |
| 2026-05-04 02:56 | -6.11684 | 106.67599 | 58 ft | 12 kts | 339° |
| 2026-05-04 02:56 | -6.11574 | 106.67568 | 44 ft | 20 kts | 357° |
| 2026-05-04 02:56 | -6.11491 | 106.67613 | 44 ft | 7 kts | 19° |
| 2026-05-04 02:56 | -6.11440 | 106.67595 | 44 ft | 10 kts | 341° |
| 2026-05-04 02:57 | -6.11360 | 106.67567 | 44 ft | 15 kts | 339° |
| 2026-05-04 02:57 | -6.11246 | 106.67521 | 44 ft | 20 kts | 338° |
| 2026-05-04 02:57 | -6.11102 | 106.67466 | 44 ft | 24 kts | 334° |
| 2026-05-04 02:57 | -6.10998 | 106.67331 | 44 ft | 27 kts | 282° |
| 2026-05-04 02:58 | -6.11025 | 106.67136 | 44 ft | 30 kts | 257° |
| 2026-05-04 02:58 | -6.11084 | 106.66921 | 44 ft | 34 kts | 248° |
| 2026-05-04 02:58 | -6.11175 | 106.66693 | 44 ft | 36 kts | 248° |
| 2026-05-04 02:58 | -6.11269 | 106.66459 | 45 ft | 36 kts | 248° |
| 2026-05-04 02:59 | -6.11361 | 106.66227 | 45 ft | 36 kts | 248° |
| 2026-05-04 02:59 | -6.11424 | 106.66072 | 44 ft | 18 kts | 248° |
| 2026-05-04 02:59 | -6.11471 | 106.65953 | 44 ft | 4 kts | 248° |
| 2026-05-04 02:59 | -6.11480 | 106.65935 | 44 ft | 6 kts | 244° |
| 2026-05-04 03:00 | -6.11531 | 106.65914 | 44 ft | 10 kts | 174° |
| 2026-05-04 03:00 | -6.11614 | 106.65948 | 44 ft | 16 kts | 156° |
| 2026-05-04 03:00 | -6.11728 | 106.65996 | 44 ft | 19 kts | 158° |
| 2026-05-04 03:00 | -6.11797 | 106.66046 | 44 ft | 9 kts | 110° |
| 2026-05-04 03:01 | -6.11789 | 106.66093 | 44 ft | 1 kts | 72° |
| 2026-05-04 03:01 | -6.11788 | 106.66113 | 44 ft | 4 kts | 94° |
| 2026-05-04 03:01 | -6.11818 | 106.66135 | 44 ft | 7 kts | 150° |
| 2026-05-04 03:01 | -6.11842 | 106.66146 | 44 ft | 3 kts | 156° |
| 2026-05-04 03:02 | -6.11859 | 106.66153 | 44 ft | 2 kts | 158° |
| 2026-05-04 03:02 | -6.11864 | 106.66155 | 42 ft | 0 kts | 157° |
| 2026-05-04 03:02 | -6.11871 | 106.66158 | 43 ft | 1 kts | 158° |
| 2026-05-04 03:02 | -6.11875 | 106.66160 | 44 ft | 0 kts | 158° |
| 2026-05-04 03:03 | -6.11872 | 106.66159 | 44 ft | 0 kts | 158° |
| 2026-05-04 03:03 | -6.11873 | 106.66159 | 44 ft | 0 kts | 158° |
| 2026-05-04 03:03 | -6.11874 | 106.66159 | 44 ft | 0 kts | 158° |